<?xml version="1.0" encoding="UTF-8" standalone="no" ?>
<gpx xmlns="http://www.topografix.com/GPX/1/1" xmlns:xsi="http://www.w3.org/2001/XMLSchema-instance" xsi:schemaLocation="http://www.topografix.com/GPX/1/1 http://www.topografix.com/GPX/1/1/gpx.xsd" version="1.1" creator="VisuGPX - https://www.visugpx.com">
  <metadata>
    <name>Marche rapide Piscine St Germain 28-09-21</name>
  </metadata>
  <trk>
    <name><![CDATA[Marche rapide Piscine St Germain 28-09-21_1]]></name>
    <trkseg>
      <trkpt lat="48.90486" lon="2.09599">
        <ele>81.5</ele>
        <time>2021-09-28T16:36:55Z</time>
      </trkpt>
      <trkpt lat="48.90492" lon="2.09618">
        <ele>81.8</ele>
        <time>2021-09-28T16:37:01Z</time>
      </trkpt>
      <trkpt lat="48.90494" lon="2.09631">
        <ele>81.9</ele>
        <time>2021-09-28T16:37:07Z</time>
      </trkpt>
      <trkpt lat="48.90497" lon="2.09637">
        <ele>82</ele>
        <time>2021-09-28T16:37:13Z</time>
      </trkpt>
      <trkpt lat="48.90501" lon="2.09647">
        <ele>82</ele>
        <time>2021-09-28T16:37:19Z</time>
      </trkpt>
      <trkpt lat="48.905" lon="2.09658">
        <ele>82</ele>
        <time>2021-09-28T16:37:24Z</time>
      </trkpt>
      <trkpt lat="48.905" lon="2.09671">
        <ele>82</ele>
        <time>2021-09-28T16:37:30Z</time>
      </trkpt>
      <trkpt lat="48.90502" lon="2.09678">
        <ele>82.1</ele>
        <time>2021-09-28T16:37:35Z</time>
      </trkpt>
      <trkpt lat="48.90501" lon="2.09691">
        <ele>82</ele>
        <time>2021-09-28T16:37:41Z</time>
      </trkpt>
      <trkpt lat="48.90509" lon="2.09703">
        <ele>82.3</ele>
        <time>2021-09-28T16:37:46Z</time>
      </trkpt>
      <trkpt lat="48.90521" lon="2.09708">
        <ele>82.6</ele>
        <time>2021-09-28T16:37:51Z</time>
      </trkpt>
      <trkpt lat="48.90532" lon="2.09711">
        <ele>82.9</ele>
        <time>2021-09-28T16:37:57Z</time>
      </trkpt>
      <trkpt lat="48.90532" lon="2.09718">
        <ele>82.8</ele>
        <time>2021-09-28T16:38:03Z</time>
      </trkpt>
      <trkpt lat="48.90532" lon="2.09731">
        <ele>82.6</ele>
        <time>2021-09-28T16:38:09Z</time>
      </trkpt>
      <trkpt lat="48.90537" lon="2.09744">
        <ele>82.5</ele>
        <time>2021-09-28T16:38:15Z</time>
      </trkpt>
      <trkpt lat="48.90543" lon="2.09756">
        <ele>82.4</ele>
        <time>2021-09-28T16:38:20Z</time>
      </trkpt>
      <trkpt lat="48.90544" lon="2.0977">
        <ele>82</ele>
        <time>2021-09-28T16:38:26Z</time>
      </trkpt>
      <trkpt lat="48.90549" lon="2.09775">
        <ele>81.9</ele>
        <time>2021-09-28T16:38:31Z</time>
      </trkpt>
      <trkpt lat="48.90553" lon="2.0978">
        <ele>81.8</ele>
        <time>2021-09-28T16:38:36Z</time>
      </trkpt>
      <trkpt lat="48.90555" lon="2.09789">
        <ele>81.6</ele>
        <time>2021-09-28T16:38:42Z</time>
      </trkpt>
      <trkpt lat="48.90561" lon="2.09794">
        <ele>81.4</ele>
        <time>2021-09-28T16:38:47Z</time>
      </trkpt>
      <trkpt lat="48.9057" lon="2.09799">
        <ele>81.3</ele>
        <time>2021-09-28T16:38:53Z</time>
      </trkpt>
      <trkpt lat="48.90576" lon="2.09811">
        <ele>80.9</ele>
        <time>2021-09-28T16:38:59Z</time>
      </trkpt>
      <trkpt lat="48.90577" lon="2.09822">
        <ele>80.4</ele>
        <time>2021-09-28T16:39:04Z</time>
      </trkpt>
      <trkpt lat="48.90578" lon="2.09835">
        <ele>80.1</ele>
        <time>2021-09-28T16:39:09Z</time>
      </trkpt>
      <trkpt lat="48.90585" lon="2.09842">
        <ele>80.1</ele>
        <time>2021-09-28T16:39:15Z</time>
      </trkpt>
      <trkpt lat="48.90594" lon="2.09845">
        <ele>80.4</ele>
        <time>2021-09-28T16:39:20Z</time>
      </trkpt>
      <trkpt lat="48.90595" lon="2.0985">
        <ele>80.5</ele>
        <time>2021-09-28T16:39:26Z</time>
      </trkpt>
      <trkpt lat="48.90599" lon="2.09857">
        <ele>80.6</ele>
        <time>2021-09-28T16:39:32Z</time>
      </trkpt>
      <trkpt lat="48.90605" lon="2.09861">
        <ele>80.8</ele>
        <time>2021-09-28T16:39:37Z</time>
      </trkpt>
      <trkpt lat="48.9061" lon="2.09872">
        <ele>81</ele>
        <time>2021-09-28T16:39:43Z</time>
      </trkpt>
      <trkpt lat="48.9061" lon="2.09884">
        <ele>81.1</ele>
        <time>2021-09-28T16:39:48Z</time>
      </trkpt>
      <trkpt lat="48.90615" lon="2.09895">
        <ele>81.2</ele>
        <time>2021-09-28T16:39:54Z</time>
      </trkpt>
      <trkpt lat="48.90619" lon="2.09904">
        <ele>81.4</ele>
        <time>2021-09-28T16:40:00Z</time>
      </trkpt>
      <trkpt lat="48.90625" lon="2.09911">
        <ele>81.5</ele>
        <time>2021-09-28T16:40:05Z</time>
      </trkpt>
      <trkpt lat="48.90632" lon="2.09925">
        <ele>81.8</ele>
        <time>2021-09-28T16:40:11Z</time>
      </trkpt>
      <trkpt lat="48.90639" lon="2.09932">
        <ele>82</ele>
        <time>2021-09-28T16:40:16Z</time>
      </trkpt>
      <trkpt lat="48.90647" lon="2.09938">
        <ele>82.1</ele>
        <time>2021-09-28T16:40:21Z</time>
      </trkpt>
      <trkpt lat="48.90653" lon="2.09945">
        <ele>82.3</ele>
        <time>2021-09-28T16:40:26Z</time>
      </trkpt>
      <trkpt lat="48.90663" lon="2.09951">
        <ele>82.4</ele>
        <time>2021-09-28T16:40:32Z</time>
      </trkpt>
      <trkpt lat="48.90667" lon="2.09952">
        <ele>82.4</ele>
        <time>2021-09-28T16:40:37Z</time>
      </trkpt>
      <trkpt lat="48.90669" lon="2.09953">
        <ele>82.4</ele>
        <time>2021-09-28T16:40:42Z</time>
      </trkpt>
      <trkpt lat="48.90672" lon="2.09954">
        <ele>82.3</ele>
        <time>2021-09-28T16:40:48Z</time>
      </trkpt>
      <trkpt lat="48.9068" lon="2.09953">
        <ele>82.1</ele>
        <time>2021-09-28T16:40:54Z</time>
      </trkpt>
      <trkpt lat="48.90688" lon="2.09952">
        <ele>81.9</ele>
        <time>2021-09-28T16:40:59Z</time>
      </trkpt>
      <trkpt lat="48.90698" lon="2.09954">
        <ele>81.7</ele>
        <time>2021-09-28T16:41:04Z</time>
      </trkpt>
      <trkpt lat="48.90706" lon="2.09957">
        <ele>81.5</ele>
        <time>2021-09-28T16:41:09Z</time>
      </trkpt>
      <trkpt lat="48.90717" lon="2.09962">
        <ele>81.3</ele>
        <time>2021-09-28T16:41:15Z</time>
      </trkpt>
      <trkpt lat="48.90729" lon="2.09965">
        <ele>81.1</ele>
        <time>2021-09-28T16:41:21Z</time>
      </trkpt>
      <trkpt lat="48.90739" lon="2.09968">
        <ele>80.9</ele>
        <time>2021-09-28T16:41:27Z</time>
      </trkpt>
      <trkpt lat="48.90748" lon="2.09971">
        <ele>80.7</ele>
        <time>2021-09-28T16:41:32Z</time>
      </trkpt>
      <trkpt lat="48.90756" lon="2.09976">
        <ele>80.7</ele>
        <time>2021-09-28T16:41:37Z</time>
      </trkpt>
      <trkpt lat="48.90764" lon="2.09981">
        <ele>80.9</ele>
        <time>2021-09-28T16:41:42Z</time>
      </trkpt>
      <trkpt lat="48.9077" lon="2.09986">
        <ele>81</ele>
        <time>2021-09-28T16:41:48Z</time>
      </trkpt>
      <trkpt lat="48.9078" lon="2.09988">
        <ele>81.1</ele>
        <time>2021-09-28T16:41:53Z</time>
      </trkpt>
      <trkpt lat="48.90787" lon="2.09993">
        <ele>81.3</ele>
        <time>2021-09-28T16:41:59Z</time>
      </trkpt>
      <trkpt lat="48.90796" lon="2.09995">
        <ele>81.4</ele>
        <time>2021-09-28T16:42:05Z</time>
      </trkpt>
      <trkpt lat="48.90798" lon="2.09997">
        <ele>81.5</ele>
        <time>2021-09-28T16:42:11Z</time>
      </trkpt>
      <trkpt lat="48.90801" lon="2.09999">
        <ele>81.6</ele>
        <time>2021-09-28T16:42:16Z</time>
      </trkpt>
      <trkpt lat="48.90813" lon="2.09999">
        <ele>81.7</ele>
        <time>2021-09-28T16:42:22Z</time>
      </trkpt>
      <trkpt lat="48.90823" lon="2.10002">
        <ele>81.9</ele>
        <time>2021-09-28T16:42:27Z</time>
      </trkpt>
      <trkpt lat="48.90834" lon="2.10005">
        <ele>82</ele>
        <time>2021-09-28T16:42:33Z</time>
      </trkpt>
      <trkpt lat="48.90843" lon="2.10009">
        <ele>81.5</ele>
        <time>2021-09-28T16:42:39Z</time>
      </trkpt>
      <trkpt lat="48.90846" lon="2.10013">
        <ele>81.3</ele>
        <time>2021-09-28T16:42:44Z</time>
      </trkpt>
      <trkpt lat="48.90851" lon="2.10017">
        <ele>81.1</ele>
        <time>2021-09-28T16:42:49Z</time>
      </trkpt>
      <trkpt lat="48.90855" lon="2.10022">
        <ele>81</ele>
        <time>2021-09-28T16:42:54Z</time>
      </trkpt>
      <trkpt lat="48.90862" lon="2.10023">
        <ele>80.8</ele>
        <time>2021-09-28T16:43:00Z</time>
      </trkpt>
      <trkpt lat="48.9087" lon="2.10024">
        <ele>80.4</ele>
        <time>2021-09-28T16:43:05Z</time>
      </trkpt>
      <trkpt lat="48.90877" lon="2.10026">
        <ele>80.2</ele>
        <time>2021-09-28T16:43:11Z</time>
      </trkpt>
      <trkpt lat="48.90886" lon="2.1003">
        <ele>80</ele>
        <time>2021-09-28T16:43:16Z</time>
      </trkpt>
      <trkpt lat="48.90891" lon="2.10035">
        <ele>80</ele>
        <time>2021-09-28T16:43:21Z</time>
      </trkpt>
      <trkpt lat="48.90897" lon="2.10038">
        <ele>79.9</ele>
        <time>2021-09-28T16:43:27Z</time>
      </trkpt>
      <trkpt lat="48.90912" lon="2.10039">
        <ele>79.5</ele>
        <time>2021-09-28T16:43:33Z</time>
      </trkpt>
      <trkpt lat="48.90919" lon="2.10045">
        <ele>79.8</ele>
        <time>2021-09-28T16:43:39Z</time>
      </trkpt>
      <trkpt lat="48.90921" lon="2.10051">
        <ele>80.3</ele>
        <time>2021-09-28T16:43:44Z</time>
      </trkpt>
      <trkpt lat="48.90924" lon="2.1006">
        <ele>80.9</ele>
        <time>2021-09-28T16:43:50Z</time>
      </trkpt>
      <trkpt lat="48.90928" lon="2.10067">
        <ele>81.5</ele>
        <time>2021-09-28T16:43:55Z</time>
      </trkpt>
      <trkpt lat="48.90934" lon="2.10074">
        <ele>82.2</ele>
        <time>2021-09-28T16:44:01Z</time>
      </trkpt>
      <trkpt lat="48.90936" lon="2.10082">
        <ele>82.9</ele>
        <time>2021-09-28T16:44:06Z</time>
      </trkpt>
      <trkpt lat="48.90944" lon="2.10093">
        <ele>83.7</ele>
        <time>2021-09-28T16:44:12Z</time>
      </trkpt>
      <trkpt lat="48.90954" lon="2.10097">
        <ele>84.2</ele>
        <time>2021-09-28T16:44:17Z</time>
      </trkpt>
      <trkpt lat="48.90973" lon="2.10097">
        <ele>85.1</ele>
        <time>2021-09-28T16:44:23Z</time>
      </trkpt>
      <trkpt lat="48.90981" lon="2.10098">
        <ele>85.5</ele>
        <time>2021-09-28T16:44:28Z</time>
      </trkpt>
      <trkpt lat="48.90981" lon="2.10099">
        <ele>85.5</ele>
        <time>2021-09-28T16:44:34Z</time>
      </trkpt>
      <trkpt lat="48.90985" lon="2.10101">
        <ele>85.8</ele>
        <time>2021-09-28T16:44:39Z</time>
      </trkpt>
      <trkpt lat="48.90994" lon="2.10104">
        <ele>86.2</ele>
        <time>2021-09-28T16:44:45Z</time>
      </trkpt>
      <trkpt lat="48.91003" lon="2.10104">
        <ele>86.4</ele>
        <time>2021-09-28T16:44:50Z</time>
      </trkpt>
      <trkpt lat="48.91011" lon="2.10101">
        <ele>86</ele>
        <time>2021-09-28T16:44:55Z</time>
      </trkpt>
      <trkpt lat="48.91018" lon="2.10093">
        <ele>85.6</ele>
        <time>2021-09-28T16:45:01Z</time>
      </trkpt>
      <trkpt lat="48.91023" lon="2.10084">
        <ele>85.2</ele>
        <time>2021-09-28T16:45:06Z</time>
      </trkpt>
      <trkpt lat="48.91027" lon="2.10075">
        <ele>84.6</ele>
        <time>2021-09-28T16:45:12Z</time>
      </trkpt>
      <trkpt lat="48.91034" lon="2.10071">
        <ele>84.2</ele>
        <time>2021-09-28T16:45:17Z</time>
      </trkpt>
      <trkpt lat="48.91039" lon="2.10067">
        <ele>83.9</ele>
        <time>2021-09-28T16:45:22Z</time>
      </trkpt>
      <trkpt lat="48.91046" lon="2.10056">
        <ele>83.3</ele>
        <time>2021-09-28T16:45:28Z</time>
      </trkpt>
      <trkpt lat="48.91051" lon="2.10046">
        <ele>82.7</ele>
        <time>2021-09-28T16:45:33Z</time>
      </trkpt>
      <trkpt lat="48.91057" lon="2.10039">
        <ele>82.4</ele>
        <time>2021-09-28T16:45:39Z</time>
      </trkpt>
      <trkpt lat="48.91065" lon="2.10035">
        <ele>82.1</ele>
        <time>2021-09-28T16:45:45Z</time>
      </trkpt>
      <trkpt lat="48.91069" lon="2.10028">
        <ele>81.9</ele>
        <time>2021-09-28T16:45:51Z</time>
      </trkpt>
      <trkpt lat="48.91072" lon="2.10026">
        <ele>81.8</ele>
        <time>2021-09-28T16:45:56Z</time>
      </trkpt>
      <trkpt lat="48.91076" lon="2.10021">
        <ele>81.6</ele>
        <time>2021-09-28T16:46:02Z</time>
      </trkpt>
      <trkpt lat="48.91081" lon="2.10016">
        <ele>81.4</ele>
        <time>2021-09-28T16:46:08Z</time>
      </trkpt>
      <trkpt lat="48.9109" lon="2.10013">
        <ele>80.9</ele>
        <time>2021-09-28T16:46:13Z</time>
      </trkpt>
      <trkpt lat="48.91094" lon="2.10012">
        <ele>80.6</ele>
        <time>2021-09-28T16:46:19Z</time>
      </trkpt>
      <trkpt lat="48.91096" lon="2.10011">
        <ele>80.5</ele>
        <time>2021-09-28T16:46:25Z</time>
      </trkpt>
      <trkpt lat="48.91108" lon="2.10015">
        <ele>79.8</ele>
        <time>2021-09-28T16:46:31Z</time>
      </trkpt>
      <trkpt lat="48.91119" lon="2.1002">
        <ele>79.3</ele>
        <time>2021-09-28T16:46:36Z</time>
      </trkpt>
      <trkpt lat="48.91128" lon="2.10024">
        <ele>78.9</ele>
        <time>2021-09-28T16:46:42Z</time>
      </trkpt>
      <trkpt lat="48.91132" lon="2.10033">
        <ele>78.9</ele>
        <time>2021-09-28T16:46:48Z</time>
      </trkpt>
      <trkpt lat="48.91137" lon="2.10039">
        <ele>78.7</ele>
        <time>2021-09-28T16:46:53Z</time>
      </trkpt>
      <trkpt lat="48.91143" lon="2.10043">
        <ele>78.5</ele>
        <time>2021-09-28T16:46:59Z</time>
      </trkpt>
      <trkpt lat="48.9115" lon="2.10048">
        <ele>78.2</ele>
        <time>2021-09-28T16:47:04Z</time>
      </trkpt>
      <trkpt lat="48.91156" lon="2.1005">
        <ele>77.8</ele>
        <time>2021-09-28T16:47:10Z</time>
      </trkpt>
      <trkpt lat="48.91162" lon="2.10051">
        <ele>77.5</ele>
        <time>2021-09-28T16:47:15Z</time>
      </trkpt>
      <trkpt lat="48.91169" lon="2.10051">
        <ele>77.1</ele>
        <time>2021-09-28T16:47:21Z</time>
      </trkpt>
      <trkpt lat="48.91179" lon="2.1005">
        <ele>76.7</ele>
        <time>2021-09-28T16:47:27Z</time>
      </trkpt>
      <trkpt lat="48.9119" lon="2.1005">
        <ele>76.2</ele>
        <time>2021-09-28T16:47:32Z</time>
      </trkpt>
      <trkpt lat="48.91197" lon="2.10051">
        <ele>75.9</ele>
        <time>2021-09-28T16:47:38Z</time>
      </trkpt>
      <trkpt lat="48.91204" lon="2.10052">
        <ele>75.6</ele>
        <time>2021-09-28T16:47:44Z</time>
      </trkpt>
      <trkpt lat="48.91211" lon="2.10053">
        <ele>75.3</ele>
        <time>2021-09-28T16:47:50Z</time>
      </trkpt>
      <trkpt lat="48.91214" lon="2.10053">
        <ele>75.2</ele>
        <time>2021-09-28T16:47:56Z</time>
      </trkpt>
      <trkpt lat="48.91217" lon="2.10054">
        <ele>75.1</ele>
        <time>2021-09-28T16:48:01Z</time>
      </trkpt>
      <trkpt lat="48.91227" lon="2.10052">
        <ele>74.6</ele>
        <time>2021-09-28T16:48:06Z</time>
      </trkpt>
      <trkpt lat="48.91237" lon="2.10052">
        <ele>74.2</ele>
        <time>2021-09-28T16:48:11Z</time>
      </trkpt>
      <trkpt lat="48.9125" lon="2.10052">
        <ele>73.6</ele>
        <time>2021-09-28T16:48:17Z</time>
      </trkpt>
      <trkpt lat="48.91259" lon="2.10054">
        <ele>73.7</ele>
        <time>2021-09-28T16:48:22Z</time>
      </trkpt>
      <trkpt lat="48.91268" lon="2.10053">
        <ele>73.8</ele>
        <time>2021-09-28T16:48:28Z</time>
      </trkpt>
      <trkpt lat="48.91275" lon="2.10053">
        <ele>73.8</ele>
        <time>2021-09-28T16:48:33Z</time>
      </trkpt>
      <trkpt lat="48.91283" lon="2.10053">
        <ele>73.9</ele>
        <time>2021-09-28T16:48:38Z</time>
      </trkpt>
      <trkpt lat="48.91294" lon="2.1005">
        <ele>73.9</ele>
        <time>2021-09-28T16:48:44Z</time>
      </trkpt>
      <trkpt lat="48.91302" lon="2.10049">
        <ele>74</ele>
        <time>2021-09-28T16:48:49Z</time>
      </trkpt>
      <trkpt lat="48.9131" lon="2.10051">
        <ele>74</ele>
        <time>2021-09-28T16:48:55Z</time>
      </trkpt>
      <trkpt lat="48.91314" lon="2.10051">
        <ele>74.1</ele>
        <time>2021-09-28T16:49:00Z</time>
      </trkpt>
      <trkpt lat="48.91316" lon="2.10051">
        <ele>74.1</ele>
        <time>2021-09-28T16:49:05Z</time>
      </trkpt>
      <trkpt lat="48.91326" lon="2.10049">
        <ele>74.1</ele>
        <time>2021-09-28T16:49:11Z</time>
      </trkpt>
      <trkpt lat="48.91334" lon="2.10048">
        <ele>74.2</ele>
        <time>2021-09-28T16:49:16Z</time>
      </trkpt>
      <trkpt lat="48.91344" lon="2.10048">
        <ele>74.6</ele>
        <time>2021-09-28T16:49:21Z</time>
      </trkpt>
      <trkpt lat="48.91357" lon="2.10047">
        <ele>75</ele>
        <time>2021-09-28T16:49:26Z</time>
      </trkpt>
      <trkpt lat="48.91366" lon="2.10049">
        <ele>75.4</ele>
        <time>2021-09-28T16:49:32Z</time>
      </trkpt>
      <trkpt lat="48.91376" lon="2.1005">
        <ele>75.7</ele>
        <time>2021-09-28T16:49:38Z</time>
      </trkpt>
      <trkpt lat="48.91378" lon="2.1005">
        <ele>75.8</ele>
        <time>2021-09-28T16:49:44Z</time>
      </trkpt>
      <trkpt lat="48.91389" lon="2.10048">
        <ele>76.2</ele>
        <time>2021-09-28T16:49:50Z</time>
      </trkpt>
      <trkpt lat="48.91393" lon="2.10048">
        <ele>76.3</ele>
        <time>2021-09-28T16:49:55Z</time>
      </trkpt>
      <trkpt lat="48.91398" lon="2.10048">
        <ele>76.5</ele>
        <time>2021-09-28T16:50:01Z</time>
      </trkpt>
      <trkpt lat="48.91401" lon="2.10049">
        <ele>76.6</ele>
        <time>2021-09-28T16:50:06Z</time>
      </trkpt>
      <trkpt lat="48.91409" lon="2.10049">
        <ele>76.9</ele>
        <time>2021-09-28T16:50:11Z</time>
      </trkpt>
      <trkpt lat="48.91417" lon="2.10048">
        <ele>77.2</ele>
        <time>2021-09-28T16:50:17Z</time>
      </trkpt>
      <trkpt lat="48.91426" lon="2.10045">
        <ele>77.4</ele>
        <time>2021-09-28T16:50:23Z</time>
      </trkpt>
      <trkpt lat="48.91431" lon="2.10044">
        <ele>77.6</ele>
        <time>2021-09-28T16:50:28Z</time>
      </trkpt>
      <trkpt lat="48.91435" lon="2.10046">
        <ele>77.8</ele>
        <time>2021-09-28T16:50:34Z</time>
      </trkpt>
      <trkpt lat="48.91443" lon="2.10043">
        <ele>78</ele>
        <time>2021-09-28T16:50:39Z</time>
      </trkpt>
      <trkpt lat="48.91449" lon="2.10037">
        <ele>78.1</ele>
        <time>2021-09-28T16:50:44Z</time>
      </trkpt>
      <trkpt lat="48.91454" lon="2.10034">
        <ele>78.1</ele>
        <time>2021-09-28T16:50:50Z</time>
      </trkpt>
      <trkpt lat="48.9146" lon="2.10029">
        <ele>78.2</ele>
        <time>2021-09-28T16:50:56Z</time>
      </trkpt>
      <trkpt lat="48.91465" lon="2.10029">
        <ele>78.4</ele>
        <time>2021-09-28T16:51:01Z</time>
      </trkpt>
      <trkpt lat="48.91475" lon="2.10033">
        <ele>78.9</ele>
        <time>2021-09-28T16:51:07Z</time>
      </trkpt>
      <trkpt lat="48.91485" lon="2.10034">
        <ele>79.3</ele>
        <time>2021-09-28T16:51:12Z</time>
      </trkpt>
      <trkpt lat="48.9149" lon="2.10036">
        <ele>79.5</ele>
        <time>2021-09-28T16:51:17Z</time>
      </trkpt>
      <trkpt lat="48.91498" lon="2.10038">
        <ele>79.9</ele>
        <time>2021-09-28T16:51:23Z</time>
      </trkpt>
      <trkpt lat="48.91507" lon="2.10041">
        <ele>79.3</ele>
        <time>2021-09-28T16:51:29Z</time>
      </trkpt>
      <trkpt lat="48.91512" lon="2.10038">
        <ele>78.7</ele>
        <time>2021-09-28T16:51:34Z</time>
      </trkpt>
      <trkpt lat="48.91517" lon="2.1003">
        <ele>78.1</ele>
        <time>2021-09-28T16:51:39Z</time>
      </trkpt>
      <trkpt lat="48.91527" lon="2.10021">
        <ele>76.9</ele>
        <time>2021-09-28T16:51:45Z</time>
      </trkpt>
      <trkpt lat="48.91535" lon="2.10018">
        <ele>76</ele>
        <time>2021-09-28T16:51:51Z</time>
      </trkpt>
      <trkpt lat="48.91541" lon="2.10018">
        <ele>75.4</ele>
        <time>2021-09-28T16:51:56Z</time>
      </trkpt>
      <trkpt lat="48.91546" lon="2.1002">
        <ele>75</ele>
        <time>2021-09-28T16:52:01Z</time>
      </trkpt>
      <trkpt lat="48.91553" lon="2.10027">
        <ele>74.3</ele>
        <time>2021-09-28T16:52:07Z</time>
      </trkpt>
      <trkpt lat="48.91554" lon="2.10038">
        <ele>74.4</ele>
        <time>2021-09-28T16:52:12Z</time>
      </trkpt>
      <trkpt lat="48.91557" lon="2.10051">
        <ele>74.3</ele>
        <time>2021-09-28T16:52:17Z</time>
      </trkpt>
      <trkpt lat="48.91565" lon="2.10055">
        <ele>73.6</ele>
        <time>2021-09-28T16:52:23Z</time>
      </trkpt>
      <trkpt lat="48.91574" lon="2.10058">
        <ele>72.6</ele>
        <time>2021-09-28T16:52:29Z</time>
      </trkpt>
      <trkpt lat="48.91584" lon="2.1006">
        <ele>71.7</ele>
        <time>2021-09-28T16:52:35Z</time>
      </trkpt>
      <trkpt lat="48.91594" lon="2.10064">
        <ele>70.7</ele>
        <time>2021-09-28T16:52:40Z</time>
      </trkpt>
      <trkpt lat="48.91602" lon="2.10066">
        <ele>69.8</ele>
        <time>2021-09-28T16:52:45Z</time>
      </trkpt>
      <trkpt lat="48.9161" lon="2.1007">
        <ele>69</ele>
        <time>2021-09-28T16:52:50Z</time>
      </trkpt>
      <trkpt lat="48.9162" lon="2.10072">
        <ele>68</ele>
        <time>2021-09-28T16:52:56Z</time>
      </trkpt>
      <trkpt lat="48.91628" lon="2.10074">
        <ele>67</ele>
        <time>2021-09-28T16:53:01Z</time>
      </trkpt>
      <trkpt lat="48.91634" lon="2.10076">
        <ele>66.4</ele>
        <time>2021-09-28T16:53:06Z</time>
      </trkpt>
      <trkpt lat="48.91643" lon="2.10081">
        <ele>65.5</ele>
        <time>2021-09-28T16:53:12Z</time>
      </trkpt>
      <trkpt lat="48.91651" lon="2.10084">
        <ele>64.7</ele>
        <time>2021-09-28T16:53:18Z</time>
      </trkpt>
      <trkpt lat="48.91657" lon="2.10084">
        <ele>64</ele>
        <time>2021-09-28T16:53:23Z</time>
      </trkpt>
      <trkpt lat="48.91667" lon="2.10089">
        <ele>63.1</ele>
        <time>2021-09-28T16:53:29Z</time>
      </trkpt>
      <trkpt lat="48.91676" lon="2.10091">
        <ele>62.8</ele>
        <time>2021-09-28T16:53:35Z</time>
      </trkpt>
      <trkpt lat="48.91683" lon="2.10092">
        <ele>62.6</ele>
        <time>2021-09-28T16:53:41Z</time>
      </trkpt>
      <trkpt lat="48.91688" lon="2.10094">
        <ele>62.5</ele>
        <time>2021-09-28T16:53:46Z</time>
      </trkpt>
      <trkpt lat="48.91694" lon="2.10097">
        <ele>62.3</ele>
        <time>2021-09-28T16:53:51Z</time>
      </trkpt>
      <trkpt lat="48.91704" lon="2.101">
        <ele>62</ele>
        <time>2021-09-28T16:53:57Z</time>
      </trkpt>
      <trkpt lat="48.91713" lon="2.10104">
        <ele>61.7</ele>
        <time>2021-09-28T16:54:03Z</time>
      </trkpt>
      <trkpt lat="48.91723" lon="2.10105">
        <ele>61.3</ele>
        <time>2021-09-28T16:54:08Z</time>
      </trkpt>
      <trkpt lat="48.91728" lon="2.10108">
        <ele>61.2</ele>
        <time>2021-09-28T16:54:14Z</time>
      </trkpt>
      <trkpt lat="48.91731" lon="2.10112">
        <ele>61.1</ele>
        <time>2021-09-28T16:54:19Z</time>
      </trkpt>
      <trkpt lat="48.91736" lon="2.10113">
        <ele>60.9</ele>
        <time>2021-09-28T16:54:25Z</time>
      </trkpt>
      <trkpt lat="48.9174" lon="2.10116">
        <ele>60.8</ele>
        <time>2021-09-28T16:54:31Z</time>
      </trkpt>
      <trkpt lat="48.91746" lon="2.10119">
        <ele>60.6</ele>
        <time>2021-09-28T16:54:36Z</time>
      </trkpt>
      <trkpt lat="48.91756" lon="2.10125">
        <ele>60.7</ele>
        <time>2021-09-28T16:54:42Z</time>
      </trkpt>
      <trkpt lat="48.91768" lon="2.10124">
        <ele>61</ele>
        <time>2021-09-28T16:54:47Z</time>
      </trkpt>
      <trkpt lat="48.91776" lon="2.1013">
        <ele>61.3</ele>
        <time>2021-09-28T16:54:53Z</time>
      </trkpt>
      <trkpt lat="48.91783" lon="2.10132">
        <ele>61.5</ele>
        <time>2021-09-28T16:54:59Z</time>
      </trkpt>
      <trkpt lat="48.9179" lon="2.10131">
        <ele>61.7</ele>
        <time>2021-09-28T16:55:04Z</time>
      </trkpt>
      <trkpt lat="48.91797" lon="2.10132">
        <ele>61.9</ele>
        <time>2021-09-28T16:55:09Z</time>
      </trkpt>
      <trkpt lat="48.91817" lon="2.10134">
        <ele>62.4</ele>
        <time>2021-09-28T16:55:14Z</time>
      </trkpt>
      <trkpt lat="48.91828" lon="2.10138">
        <ele>62.6</ele>
        <time>2021-09-28T16:55:20Z</time>
      </trkpt>
      <trkpt lat="48.91834" lon="2.1014">
        <ele>62.7</ele>
        <time>2021-09-28T16:55:25Z</time>
      </trkpt>
      <trkpt lat="48.91846" lon="2.10144">
        <ele>63.2</ele>
        <time>2021-09-28T16:55:31Z</time>
      </trkpt>
      <trkpt lat="48.91849" lon="2.10148">
        <ele>63.3</ele>
        <time>2021-09-28T16:55:36Z</time>
      </trkpt>
      <trkpt lat="48.9185" lon="2.10152">
        <ele>63.3</ele>
        <time>2021-09-28T16:55:42Z</time>
      </trkpt>
      <trkpt lat="48.91853" lon="2.10156">
        <ele>63.4</ele>
        <time>2021-09-28T16:55:48Z</time>
      </trkpt>
      <trkpt lat="48.9186" lon="2.10158">
        <ele>63.7</ele>
        <time>2021-09-28T16:55:53Z</time>
      </trkpt>
      <trkpt lat="48.91865" lon="2.10162">
        <ele>64</ele>
        <time>2021-09-28T16:55:58Z</time>
      </trkpt>
      <trkpt lat="48.91871" lon="2.10165">
        <ele>64.3</ele>
        <time>2021-09-28T16:56:03Z</time>
      </trkpt>
      <trkpt lat="48.91878" lon="2.10167">
        <ele>64.7</ele>
        <time>2021-09-28T16:56:09Z</time>
      </trkpt>
      <trkpt lat="48.91885" lon="2.10167">
        <ele>65.1</ele>
        <time>2021-09-28T16:56:14Z</time>
      </trkpt>
      <trkpt lat="48.91895" lon="2.10169">
        <ele>65.6</ele>
        <time>2021-09-28T16:56:20Z</time>
      </trkpt>
      <trkpt lat="48.91903" lon="2.10174">
        <ele>66</ele>
        <time>2021-09-28T16:56:26Z</time>
      </trkpt>
      <trkpt lat="48.91914" lon="2.10175">
        <ele>66.6</ele>
        <time>2021-09-28T16:56:32Z</time>
      </trkpt>
      <trkpt lat="48.91922" lon="2.10176">
        <ele>67.2</ele>
        <time>2021-09-28T16:56:37Z</time>
      </trkpt>
      <trkpt lat="48.91932" lon="2.10178">
        <ele>68.1</ele>
        <time>2021-09-28T16:56:43Z</time>
      </trkpt>
      <trkpt lat="48.91947" lon="2.10179">
        <ele>69.3</ele>
        <time>2021-09-28T16:56:48Z</time>
      </trkpt>
      <trkpt lat="48.91942" lon="2.10178">
        <ele>68.9</ele>
        <time>2021-09-28T16:56:54Z</time>
      </trkpt>
      <trkpt lat="48.91942" lon="2.10176">
        <ele>68.9</ele>
        <time>2021-09-28T16:57:00Z</time>
      </trkpt>
      <trkpt lat="48.91942" lon="2.10175">
        <ele>69</ele>
        <time>2021-09-28T16:57:06Z</time>
      </trkpt>
      <trkpt lat="48.91942" lon="2.10175">
        <ele>69</ele>
        <time>2021-09-28T16:57:12Z</time>
      </trkpt>
      <trkpt lat="48.91941" lon="2.10175">
        <ele>68.9</ele>
        <time>2021-09-28T16:57:18Z</time>
      </trkpt>
      <trkpt lat="48.91941" lon="2.10175">
        <ele>68.9</ele>
        <time>2021-09-28T16:57:24Z</time>
      </trkpt>
      <trkpt lat="48.91941" lon="2.10175">
        <ele>68.9</ele>
        <time>2021-09-28T16:57:30Z</time>
      </trkpt>
      <trkpt lat="48.91946" lon="2.1018">
        <ele>69.2</ele>
        <time>2021-09-28T16:57:36Z</time>
      </trkpt>
      <trkpt lat="48.9195" lon="2.10188">
        <ele>69.4</ele>
        <time>2021-09-28T16:57:41Z</time>
      </trkpt>
      <trkpt lat="48.91963" lon="2.10188">
        <ele>70.5</ele>
        <time>2021-09-28T16:57:47Z</time>
      </trkpt>
      <trkpt lat="48.91974" lon="2.1019">
        <ele>71.5</ele>
        <time>2021-09-28T16:57:52Z</time>
      </trkpt>
      <trkpt lat="48.91981" lon="2.10196">
        <ele>72</ele>
        <time>2021-09-28T16:57:57Z</time>
      </trkpt>
      <trkpt lat="48.91993" lon="2.10199">
        <ele>73</ele>
        <time>2021-09-28T16:58:03Z</time>
      </trkpt>
      <trkpt lat="48.92002" lon="2.10205">
        <ele>73.6</ele>
        <time>2021-09-28T16:58:08Z</time>
      </trkpt>
      <trkpt lat="48.9201" lon="2.10213">
        <ele>73.9</ele>
        <time>2021-09-28T16:58:14Z</time>
      </trkpt>
      <trkpt lat="48.92017" lon="2.10214">
        <ele>74.2</ele>
        <time>2021-09-28T16:58:19Z</time>
      </trkpt>
      <trkpt lat="48.92023" lon="2.10214">
        <ele>74.5</ele>
        <time>2021-09-28T16:58:24Z</time>
      </trkpt>
      <trkpt lat="48.9203" lon="2.10216">
        <ele>74.8</ele>
        <time>2021-09-28T16:58:30Z</time>
      </trkpt>
      <trkpt lat="48.92035" lon="2.10215">
        <ele>75</ele>
        <time>2021-09-28T16:58:36Z</time>
      </trkpt>
      <trkpt lat="48.92039" lon="2.10216">
        <ele>75.3</ele>
        <time>2021-09-28T16:58:42Z</time>
      </trkpt>
      <trkpt lat="48.92044" lon="2.10219">
        <ele>75.6</ele>
        <time>2021-09-28T16:58:48Z</time>
      </trkpt>
      <trkpt lat="48.92051" lon="2.1022">
        <ele>75.9</ele>
        <time>2021-09-28T16:58:53Z</time>
      </trkpt>
      <trkpt lat="48.92059" lon="2.1022">
        <ele>76.4</ele>
        <time>2021-09-28T16:58:59Z</time>
      </trkpt>
      <trkpt lat="48.92063" lon="2.10221">
        <ele>76.6</ele>
        <time>2021-09-28T16:59:05Z</time>
      </trkpt>
      <trkpt lat="48.92066" lon="2.10223">
        <ele>76.8</ele>
        <time>2021-09-28T16:59:10Z</time>
      </trkpt>
      <trkpt lat="48.92067" lon="2.10224">
        <ele>76.9</ele>
        <time>2021-09-28T16:59:16Z</time>
      </trkpt>
      <trkpt lat="48.92071" lon="2.10226">
        <ele>77.2</ele>
        <time>2021-09-28T16:59:21Z</time>
      </trkpt>
      <trkpt lat="48.92079" lon="2.10228">
        <ele>77.7</ele>
        <time>2021-09-28T16:59:26Z</time>
      </trkpt>
      <trkpt lat="48.92093" lon="2.10233">
        <ele>78</ele>
        <time>2021-09-28T16:59:32Z</time>
      </trkpt>
      <trkpt lat="48.921" lon="2.10235">
        <ele>77.9</ele>
        <time>2021-09-28T16:59:37Z</time>
      </trkpt>
      <trkpt lat="48.92104" lon="2.10236">
        <ele>77.9</ele>
        <time>2021-09-28T16:59:42Z</time>
      </trkpt>
      <trkpt lat="48.92107" lon="2.10237">
        <ele>77.8</ele>
        <time>2021-09-28T16:59:48Z</time>
      </trkpt>
      <trkpt lat="48.92115" lon="2.10241">
        <ele>77.9</ele>
        <time>2021-09-28T16:59:54Z</time>
      </trkpt>
      <trkpt lat="48.92128" lon="2.10246">
        <ele>77.8</ele>
        <time>2021-09-28T17:00:00Z</time>
      </trkpt>
      <trkpt lat="48.92134" lon="2.10251">
        <ele>77.8</ele>
        <time>2021-09-28T17:00:05Z</time>
      </trkpt>
      <trkpt lat="48.92144" lon="2.10252">
        <ele>77.6</ele>
        <time>2021-09-28T17:00:11Z</time>
      </trkpt>
      <trkpt lat="48.9215" lon="2.10254">
        <ele>77.5</ele>
        <time>2021-09-28T17:00:16Z</time>
      </trkpt>
      <trkpt lat="48.92158" lon="2.10256">
        <ele>77.5</ele>
        <time>2021-09-28T17:00:22Z</time>
      </trkpt>
      <trkpt lat="48.92168" lon="2.1026">
        <ele>77.4</ele>
        <time>2021-09-28T17:00:28Z</time>
      </trkpt>
      <trkpt lat="48.92175" lon="2.10269">
        <ele>77.7</ele>
        <time>2021-09-28T17:00:34Z</time>
      </trkpt>
      <trkpt lat="48.92181" lon="2.10274">
        <ele>77.8</ele>
        <time>2021-09-28T17:00:39Z</time>
      </trkpt>
      <trkpt lat="48.92193" lon="2.10274">
        <ele>77.6</ele>
        <time>2021-09-28T17:00:44Z</time>
      </trkpt>
      <trkpt lat="48.92207" lon="2.10274">
        <ele>77.3</ele>
        <time>2021-09-28T17:00:50Z</time>
      </trkpt>
      <trkpt lat="48.92216" lon="2.10277">
        <ele>77.3</ele>
        <time>2021-09-28T17:00:56Z</time>
      </trkpt>
      <trkpt lat="48.92225" lon="2.10282">
        <ele>77.4</ele>
        <time>2021-09-28T17:01:02Z</time>
      </trkpt>
      <trkpt lat="48.92237" lon="2.10285">
        <ele>77.3</ele>
        <time>2021-09-28T17:01:08Z</time>
      </trkpt>
      <trkpt lat="48.92242" lon="2.1029">
        <ele>77.5</ele>
        <time>2021-09-28T17:01:13Z</time>
      </trkpt>
      <trkpt lat="48.92247" lon="2.10294">
        <ele>77.7</ele>
        <time>2021-09-28T17:01:18Z</time>
      </trkpt>
      <trkpt lat="48.92257" lon="2.10295">
        <ele>77.7</ele>
        <time>2021-09-28T17:01:24Z</time>
      </trkpt>
      <trkpt lat="48.9226" lon="2.10297">
        <ele>77.8</ele>
        <time>2021-09-28T17:01:29Z</time>
      </trkpt>
      <trkpt lat="48.92264" lon="2.10299">
        <ele>77.9</ele>
        <time>2021-09-28T17:01:35Z</time>
      </trkpt>
      <trkpt lat="48.9227" lon="2.10304">
        <ele>78.1</ele>
        <time>2021-09-28T17:01:40Z</time>
      </trkpt>
      <trkpt lat="48.9228" lon="2.10308">
        <ele>78.2</ele>
        <time>2021-09-28T17:01:45Z</time>
      </trkpt>
      <trkpt lat="48.9229" lon="2.10316">
        <ele>78.4</ele>
        <time>2021-09-28T17:01:51Z</time>
      </trkpt>
      <trkpt lat="48.923" lon="2.10317">
        <ele>78.3</ele>
        <time>2021-09-28T17:01:56Z</time>
      </trkpt>
      <trkpt lat="48.92313" lon="2.10316">
        <ele>78.1</ele>
        <time>2021-09-28T17:02:02Z</time>
      </trkpt>
      <trkpt lat="48.9232" lon="2.10316">
        <ele>78</ele>
        <time>2021-09-28T17:02:08Z</time>
      </trkpt>
      <trkpt lat="48.92327" lon="2.10317">
        <ele>77.9</ele>
        <time>2021-09-28T17:02:13Z</time>
      </trkpt>
      <trkpt lat="48.92334" lon="2.10321">
        <ele>77.9</ele>
        <time>2021-09-28T17:02:19Z</time>
      </trkpt>
      <trkpt lat="48.92343" lon="2.10324">
        <ele>78.1</ele>
        <time>2021-09-28T17:02:25Z</time>
      </trkpt>
      <trkpt lat="48.92351" lon="2.10325">
        <ele>78.2</ele>
        <time>2021-09-28T17:02:31Z</time>
      </trkpt>
      <trkpt lat="48.92359" lon="2.1033">
        <ele>78.3</ele>
        <time>2021-09-28T17:02:36Z</time>
      </trkpt>
      <trkpt lat="48.92364" lon="2.10339">
        <ele>78.5</ele>
        <time>2021-09-28T17:02:42Z</time>
      </trkpt>
      <trkpt lat="48.9237" lon="2.10351">
        <ele>78.9</ele>
        <time>2021-09-28T17:02:48Z</time>
      </trkpt>
      <trkpt lat="48.92376" lon="2.10361">
        <ele>79.2</ele>
        <time>2021-09-28T17:02:53Z</time>
      </trkpt>
      <trkpt lat="48.92386" lon="2.10364">
        <ele>79.3</ele>
        <time>2021-09-28T17:02:59Z</time>
      </trkpt>
      <trkpt lat="48.92397" lon="2.10359">
        <ele>79.2</ele>
        <time>2021-09-28T17:03:05Z</time>
      </trkpt>
      <trkpt lat="48.92404" lon="2.10351">
        <ele>79.1</ele>
        <time>2021-09-28T17:03:10Z</time>
      </trkpt>
      <trkpt lat="48.92408" lon="2.10339">
        <ele>79</ele>
        <time>2021-09-28T17:03:15Z</time>
      </trkpt>
      <trkpt lat="48.92411" lon="2.10324">
        <ele>79.2</ele>
        <time>2021-09-28T17:03:21Z</time>
      </trkpt>
      <trkpt lat="48.92416" lon="2.10313">
        <ele>79.7</ele>
        <time>2021-09-28T17:03:27Z</time>
      </trkpt>
      <trkpt lat="48.92419" lon="2.1031">
        <ele>79.8</ele>
        <time>2021-09-28T17:03:32Z</time>
      </trkpt>
      <trkpt lat="48.92423" lon="2.10304">
        <ele>79.9</ele>
        <time>2021-09-28T17:03:37Z</time>
      </trkpt>
      <trkpt lat="48.92431" lon="2.10296">
        <ele>80</ele>
        <time>2021-09-28T17:03:43Z</time>
      </trkpt>
      <trkpt lat="48.92434" lon="2.10292">
        <ele>80.1</ele>
        <time>2021-09-28T17:03:48Z</time>
      </trkpt>
      <trkpt lat="48.92439" lon="2.10285">
        <ele>80.2</ele>
        <time>2021-09-28T17:03:54Z</time>
      </trkpt>
      <trkpt lat="48.92447" lon="2.10279">
        <ele>80.2</ele>
        <time>2021-09-28T17:03:59Z</time>
      </trkpt>
      <trkpt lat="48.92453" lon="2.10275">
        <ele>80.2</ele>
        <time>2021-09-28T17:04:05Z</time>
      </trkpt>
      <trkpt lat="48.92461" lon="2.10269">
        <ele>80.3</ele>
        <time>2021-09-28T17:04:10Z</time>
      </trkpt>
      <trkpt lat="48.92467" lon="2.10259">
        <ele>80.5</ele>
        <time>2021-09-28T17:04:16Z</time>
      </trkpt>
      <trkpt lat="48.92474" lon="2.10252">
        <ele>80.6</ele>
        <time>2021-09-28T17:04:21Z</time>
      </trkpt>
      <trkpt lat="48.92481" lon="2.10244">
        <ele>80.5</ele>
        <time>2021-09-28T17:04:27Z</time>
      </trkpt>
      <trkpt lat="48.92486" lon="2.10239">
        <ele>80.4</ele>
        <time>2021-09-28T17:04:32Z</time>
      </trkpt>
      <trkpt lat="48.92491" lon="2.10233">
        <ele>80.4</ele>
        <time>2021-09-28T17:04:38Z</time>
      </trkpt>
      <trkpt lat="48.925" lon="2.10226">
        <ele>80.3</ele>
        <time>2021-09-28T17:04:44Z</time>
      </trkpt>
      <trkpt lat="48.92505" lon="2.1022">
        <ele>80.3</ele>
        <time>2021-09-28T17:04:49Z</time>
      </trkpt>
      <trkpt lat="48.92512" lon="2.10213">
        <ele>80.3</ele>
        <time>2021-09-28T17:04:54Z</time>
      </trkpt>
      <trkpt lat="48.92519" lon="2.10208">
        <ele>80.3</ele>
        <time>2021-09-28T17:04:59Z</time>
      </trkpt>
      <trkpt lat="48.92523" lon="2.10198">
        <ele>80.3</ele>
        <time>2021-09-28T17:05:05Z</time>
      </trkpt>
      <trkpt lat="48.92536" lon="2.10187">
        <ele>80.3</ele>
        <time>2021-09-28T17:05:11Z</time>
      </trkpt>
      <trkpt lat="48.92542" lon="2.1018">
        <ele>80.3</ele>
        <time>2021-09-28T17:05:16Z</time>
      </trkpt>
      <trkpt lat="48.92549" lon="2.10173">
        <ele>80.3</ele>
        <time>2021-09-28T17:05:22Z</time>
      </trkpt>
      <trkpt lat="48.92554" lon="2.10168">
        <ele>80.3</ele>
        <time>2021-09-28T17:05:27Z</time>
      </trkpt>
      <trkpt lat="48.92561" lon="2.10162">
        <ele>80.4</ele>
        <time>2021-09-28T17:05:33Z</time>
      </trkpt>
      <trkpt lat="48.9257" lon="2.10156">
        <ele>80.5</ele>
        <time>2021-09-28T17:05:38Z</time>
      </trkpt>
      <trkpt lat="48.92577" lon="2.1015">
        <ele>80.7</ele>
        <time>2021-09-28T17:05:43Z</time>
      </trkpt>
      <trkpt lat="48.92586" lon="2.10137">
        <ele>81</ele>
        <time>2021-09-28T17:05:49Z</time>
      </trkpt>
      <trkpt lat="48.92593" lon="2.10128">
        <ele>81.1</ele>
        <time>2021-09-28T17:05:54Z</time>
      </trkpt>
      <trkpt lat="48.92598" lon="2.10124">
        <ele>81.1</ele>
        <time>2021-09-28T17:05:59Z</time>
      </trkpt>
      <trkpt lat="48.92606" lon="2.10119">
        <ele>81</ele>
        <time>2021-09-28T17:06:05Z</time>
      </trkpt>
      <trkpt lat="48.92612" lon="2.10114">
        <ele>81</ele>
        <time>2021-09-28T17:06:10Z</time>
      </trkpt>
      <trkpt lat="48.92617" lon="2.10108">
        <ele>81</ele>
        <time>2021-09-28T17:06:15Z</time>
      </trkpt>
      <trkpt lat="48.92621" lon="2.10103">
        <ele>81</ele>
        <time>2021-09-28T17:06:20Z</time>
      </trkpt>
      <trkpt lat="48.9263" lon="2.10095">
        <ele>81</ele>
        <time>2021-09-28T17:06:26Z</time>
      </trkpt>
      <trkpt lat="48.92638" lon="2.10087">
        <ele>80.9</ele>
        <time>2021-09-28T17:06:31Z</time>
      </trkpt>
      <trkpt lat="48.92646" lon="2.10076">
        <ele>80.8</ele>
        <time>2021-09-28T17:06:37Z</time>
      </trkpt>
      <trkpt lat="48.92653" lon="2.10072">
        <ele>80.5</ele>
        <time>2021-09-28T17:06:42Z</time>
      </trkpt>
      <trkpt lat="48.92663" lon="2.10066">
        <ele>80.1</ele>
        <time>2021-09-28T17:06:48Z</time>
      </trkpt>
      <trkpt lat="48.92666" lon="2.10057">
        <ele>80</ele>
        <time>2021-09-28T17:06:54Z</time>
      </trkpt>
      <trkpt lat="48.9267" lon="2.10054">
        <ele>79.7</ele>
        <time>2021-09-28T17:06:59Z</time>
      </trkpt>
      <trkpt lat="48.92677" lon="2.10046">
        <ele>79.2</ele>
        <time>2021-09-28T17:07:05Z</time>
      </trkpt>
      <trkpt lat="48.92684" lon="2.10039">
        <ele>78.5</ele>
        <time>2021-09-28T17:07:10Z</time>
      </trkpt>
      <trkpt lat="48.9269" lon="2.10034">
        <ele>78.1</ele>
        <time>2021-09-28T17:07:16Z</time>
      </trkpt>
      <trkpt lat="48.92697" lon="2.10028">
        <ele>77.5</ele>
        <time>2021-09-28T17:07:21Z</time>
      </trkpt>
      <trkpt lat="48.92702" lon="2.10021">
        <ele>77</ele>
        <time>2021-09-28T17:07:26Z</time>
      </trkpt>
      <trkpt lat="48.92709" lon="2.10021">
        <ele>76.4</ele>
        <time>2021-09-28T17:07:32Z</time>
      </trkpt>
      <trkpt lat="48.92713" lon="2.10024">
        <ele>76.1</ele>
        <time>2021-09-28T17:07:37Z</time>
      </trkpt>
      <trkpt lat="48.92712" lon="2.10034">
        <ele>76.2</ele>
        <time>2021-09-28T17:07:42Z</time>
      </trkpt>
      <trkpt lat="48.92708" lon="2.10057">
        <ele>76.5</ele>
        <time>2021-09-28T17:07:48Z</time>
      </trkpt>
      <trkpt lat="48.92707" lon="2.10075">
        <ele>76.6</ele>
        <time>2021-09-28T17:07:54Z</time>
      </trkpt>
      <trkpt lat="48.92712" lon="2.10088">
        <ele>76.2</ele>
        <time>2021-09-28T17:07:59Z</time>
      </trkpt>
      <trkpt lat="48.92716" lon="2.10102">
        <ele>76.1</ele>
        <time>2021-09-28T17:08:04Z</time>
      </trkpt>
      <trkpt lat="48.92725" lon="2.10118">
        <ele>75.7</ele>
        <time>2021-09-28T17:08:10Z</time>
      </trkpt>
      <trkpt lat="48.92731" lon="2.10133">
        <ele>75.7</ele>
        <time>2021-09-28T17:08:16Z</time>
      </trkpt>
      <trkpt lat="48.92744" lon="2.10131">
        <ele>75</ele>
        <time>2021-09-28T17:08:21Z</time>
      </trkpt>
      <trkpt lat="48.92759" lon="2.1013">
        <ele>74.3</ele>
        <time>2021-09-28T17:08:27Z</time>
      </trkpt>
      <trkpt lat="48.92769" lon="2.1013">
        <ele>74</ele>
        <time>2021-09-28T17:08:32Z</time>
      </trkpt>
      <trkpt lat="48.92775" lon="2.10137">
        <ele>73.8</ele>
        <time>2021-09-28T17:08:37Z</time>
      </trkpt>
      <trkpt lat="48.9278" lon="2.10149">
        <ele>73.8</ele>
        <time>2021-09-28T17:08:43Z</time>
      </trkpt>
      <trkpt lat="48.92784" lon="2.10161">
        <ele>73.9</ele>
        <time>2021-09-28T17:08:48Z</time>
      </trkpt>
      <trkpt lat="48.92782" lon="2.10182">
        <ele>74.4</ele>
        <time>2021-09-28T17:08:54Z</time>
      </trkpt>
      <trkpt lat="48.92786" lon="2.10193">
        <ele>74.3</ele>
        <time>2021-09-28T17:09:00Z</time>
      </trkpt>
      <trkpt lat="48.92793" lon="2.10203">
        <ele>74</ele>
        <time>2021-09-28T17:09:05Z</time>
      </trkpt>
      <trkpt lat="48.9279" lon="2.10218">
        <ele>74.6</ele>
        <time>2021-09-28T17:09:10Z</time>
      </trkpt>
      <trkpt lat="48.92786" lon="2.1024">
        <ele>75.2</ele>
        <time>2021-09-28T17:09:16Z</time>
      </trkpt>
      <trkpt lat="48.92788" lon="2.10245">
        <ele>75.2</ele>
        <time>2021-09-28T17:09:21Z</time>
      </trkpt>
      <trkpt lat="48.9279" lon="2.10247">
        <ele>75</ele>
        <time>2021-09-28T17:09:26Z</time>
      </trkpt>
      <trkpt lat="48.92792" lon="2.10248">
        <ele>75</ele>
        <time>2021-09-28T17:09:31Z</time>
      </trkpt>
      <trkpt lat="48.92796" lon="2.10248">
        <ele>74.7</ele>
        <time>2021-09-28T17:09:37Z</time>
      </trkpt>
      <trkpt lat="48.928" lon="2.10265">
        <ele>74.9</ele>
        <time>2021-09-28T17:09:42Z</time>
      </trkpt>
      <trkpt lat="48.92804" lon="2.1028">
        <ele>75</ele>
        <time>2021-09-28T17:09:47Z</time>
      </trkpt>
      <trkpt lat="48.92802" lon="2.1031">
        <ele>76.1</ele>
        <time>2021-09-28T17:09:54Z</time>
      </trkpt>
      <trkpt lat="48.92801" lon="2.10324">
        <ele>76.7</ele>
        <time>2021-09-28T17:09:59Z</time>
      </trkpt>
      <trkpt lat="48.92809" lon="2.10327">
        <ele>76.2</ele>
        <time>2021-09-28T17:10:04Z</time>
      </trkpt>
      <trkpt lat="48.92819" lon="2.10334">
        <ele>75.9</ele>
        <time>2021-09-28T17:10:10Z</time>
      </trkpt>
      <trkpt lat="48.92825" lon="2.10346">
        <ele>75.8</ele>
        <time>2021-09-28T17:10:16Z</time>
      </trkpt>
      <trkpt lat="48.92829" lon="2.10357">
        <ele>75.8</ele>
        <time>2021-09-28T17:10:21Z</time>
      </trkpt>
      <trkpt lat="48.92836" lon="2.1037">
        <ele>75.8</ele>
        <time>2021-09-28T17:10:27Z</time>
      </trkpt>
      <trkpt lat="48.92838" lon="2.10382">
        <ele>75.9</ele>
        <time>2021-09-28T17:10:32Z</time>
      </trkpt>
      <trkpt lat="48.92843" lon="2.10386">
        <ele>75.8</ele>
        <time>2021-09-28T17:10:38Z</time>
      </trkpt>
      <trkpt lat="48.92845" lon="2.10399">
        <ele>75.9</ele>
        <time>2021-09-28T17:10:44Z</time>
      </trkpt>
      <trkpt lat="48.92849" lon="2.10411">
        <ele>75.9</ele>
        <time>2021-09-28T17:10:50Z</time>
      </trkpt>
      <trkpt lat="48.92851" lon="2.1042">
        <ele>76</ele>
        <time>2021-09-28T17:10:55Z</time>
      </trkpt>
      <trkpt lat="48.92854" lon="2.10435">
        <ele>76.2</ele>
        <time>2021-09-28T17:11:00Z</time>
      </trkpt>
      <trkpt lat="48.92858" lon="2.10446">
        <ele>76.2</ele>
        <time>2021-09-28T17:11:05Z</time>
      </trkpt>
      <trkpt lat="48.92861" lon="2.10456">
        <ele>76.3</ele>
        <time>2021-09-28T17:11:11Z</time>
      </trkpt>
      <trkpt lat="48.92864" lon="2.1047">
        <ele>76.4</ele>
        <time>2021-09-28T17:11:17Z</time>
      </trkpt>
      <trkpt lat="48.92876" lon="2.1047">
        <ele>75.7</ele>
        <time>2021-09-28T17:11:23Z</time>
      </trkpt>
      <trkpt lat="48.92882" lon="2.10473">
        <ele>75.5</ele>
        <time>2021-09-28T17:11:28Z</time>
      </trkpt>
      <trkpt lat="48.92884" lon="2.10485">
        <ele>75.6</ele>
        <time>2021-09-28T17:11:34Z</time>
      </trkpt>
      <trkpt lat="48.92889" lon="2.10496">
        <ele>75.5</ele>
        <time>2021-09-28T17:11:39Z</time>
      </trkpt>
      <trkpt lat="48.92894" lon="2.10504">
        <ele>75.3</ele>
        <time>2021-09-28T17:11:44Z</time>
      </trkpt>
      <trkpt lat="48.92897" lon="2.1052">
        <ele>74.9</ele>
        <time>2021-09-28T17:11:50Z</time>
      </trkpt>
      <trkpt lat="48.92897" lon="2.10534">
        <ele>74.7</ele>
        <time>2021-09-28T17:11:55Z</time>
      </trkpt>
      <trkpt lat="48.92897" lon="2.10545">
        <ele>74.7</ele>
        <time>2021-09-28T17:12:00Z</time>
      </trkpt>
      <trkpt lat="48.92899" lon="2.10555">
        <ele>74.4</ele>
        <time>2021-09-28T17:12:05Z</time>
      </trkpt>
      <trkpt lat="48.92904" lon="2.10565">
        <ele>74</ele>
        <time>2021-09-28T17:12:11Z</time>
      </trkpt>
      <trkpt lat="48.92913" lon="2.10574">
        <ele>73.3</ele>
        <time>2021-09-28T17:12:17Z</time>
      </trkpt>
      <trkpt lat="48.92916" lon="2.10588">
        <ele>73</ele>
        <time>2021-09-28T17:12:22Z</time>
      </trkpt>
      <trkpt lat="48.92917" lon="2.10603">
        <ele>72.8</ele>
        <time>2021-09-28T17:12:28Z</time>
      </trkpt>
      <trkpt lat="48.92919" lon="2.10614">
        <ele>72.6</ele>
        <time>2021-09-28T17:12:33Z</time>
      </trkpt>
      <trkpt lat="48.92921" lon="2.10619">
        <ele>72.6</ele>
        <time>2021-09-28T17:12:38Z</time>
      </trkpt>
      <trkpt lat="48.92923" lon="2.10627">
        <ele>72.5</ele>
        <time>2021-09-28T17:12:44Z</time>
      </trkpt>
      <trkpt lat="48.92926" lon="2.10644">
        <ele>72.4</ele>
        <time>2021-09-28T17:12:50Z</time>
      </trkpt>
      <trkpt lat="48.92926" lon="2.10657">
        <ele>72.2</ele>
        <time>2021-09-28T17:12:56Z</time>
      </trkpt>
      <trkpt lat="48.92928" lon="2.10667">
        <ele>72.1</ele>
        <time>2021-09-28T17:13:01Z</time>
      </trkpt>
      <trkpt lat="48.92932" lon="2.10679">
        <ele>71.9</ele>
        <time>2021-09-28T17:13:07Z</time>
      </trkpt>
      <trkpt lat="48.92934" lon="2.10691">
        <ele>71.7</ele>
        <time>2021-09-28T17:13:13Z</time>
      </trkpt>
      <trkpt lat="48.92938" lon="2.10701">
        <ele>71.6</ele>
        <time>2021-09-28T17:13:19Z</time>
      </trkpt>
      <trkpt lat="48.92939" lon="2.10713">
        <ele>71.5</ele>
        <time>2021-09-28T17:13:24Z</time>
      </trkpt>
      <trkpt lat="48.9294" lon="2.10718">
        <ele>71.4</ele>
        <time>2021-09-28T17:13:30Z</time>
      </trkpt>
      <trkpt lat="48.92941" lon="2.10724">
        <ele>71.3</ele>
        <time>2021-09-28T17:13:35Z</time>
      </trkpt>
      <trkpt lat="48.92942" lon="2.10736">
        <ele>71.1</ele>
        <time>2021-09-28T17:13:40Z</time>
      </trkpt>
      <trkpt lat="48.92944" lon="2.10755">
        <ele>71</ele>
        <time>2021-09-28T17:13:46Z</time>
      </trkpt>
      <trkpt lat="48.92946" lon="2.1077">
        <ele>71</ele>
        <time>2021-09-28T17:13:52Z</time>
      </trkpt>
      <trkpt lat="48.92949" lon="2.10779">
        <ele>71</ele>
        <time>2021-09-28T17:13:57Z</time>
      </trkpt>
      <trkpt lat="48.9295" lon="2.10791">
        <ele>71</ele>
        <time>2021-09-28T17:14:03Z</time>
      </trkpt>
      <trkpt lat="48.92954" lon="2.10797">
        <ele>71.1</ele>
        <time>2021-09-28T17:14:09Z</time>
      </trkpt>
      <trkpt lat="48.92956" lon="2.10807">
        <ele>71.1</ele>
        <time>2021-09-28T17:14:14Z</time>
      </trkpt>
      <trkpt lat="48.92957" lon="2.10826">
        <ele>71</ele>
        <time>2021-09-28T17:14:20Z</time>
      </trkpt>
      <trkpt lat="48.92958" lon="2.1084">
        <ele>70.8</ele>
        <time>2021-09-28T17:14:25Z</time>
      </trkpt>
      <trkpt lat="48.92961" lon="2.10852">
        <ele>70.6</ele>
        <time>2021-09-28T17:14:31Z</time>
      </trkpt>
      <trkpt lat="48.92963" lon="2.10867">
        <ele>70.3</ele>
        <time>2021-09-28T17:14:37Z</time>
      </trkpt>
      <trkpt lat="48.92963" lon="2.10885">
        <ele>69.9</ele>
        <time>2021-09-28T17:14:43Z</time>
      </trkpt>
      <trkpt lat="48.92964" lon="2.10899">
        <ele>69.6</ele>
        <time>2021-09-28T17:14:48Z</time>
      </trkpt>
      <trkpt lat="48.92965" lon="2.10912">
        <ele>69.3</ele>
        <time>2021-09-28T17:14:54Z</time>
      </trkpt>
      <trkpt lat="48.92969" lon="2.10918">
        <ele>69.2</ele>
        <time>2021-09-28T17:14:59Z</time>
      </trkpt>
      <trkpt lat="48.92971" lon="2.10931">
        <ele>69.2</ele>
        <time>2021-09-28T17:15:04Z</time>
      </trkpt>
      <trkpt lat="48.92973" lon="2.10934">
        <ele>69.3</ele>
        <time>2021-09-28T17:15:10Z</time>
      </trkpt>
      <trkpt lat="48.92974" lon="2.10934">
        <ele>69.3</ele>
        <time>2021-09-28T17:15:15Z</time>
      </trkpt>
      <trkpt lat="48.92975" lon="2.10936">
        <ele>69.3</ele>
        <time>2021-09-28T17:15:20Z</time>
      </trkpt>
      <trkpt lat="48.92976" lon="2.10939">
        <ele>69.3</ele>
        <time>2021-09-28T17:15:26Z</time>
      </trkpt>
      <trkpt lat="48.92979" lon="2.10952">
        <ele>69.4</ele>
        <time>2021-09-28T17:15:32Z</time>
      </trkpt>
      <trkpt lat="48.9298" lon="2.10973">
        <ele>69.4</ele>
        <time>2021-09-28T17:15:37Z</time>
      </trkpt>
      <trkpt lat="48.92981" lon="2.10995">
        <ele>69.3</ele>
        <time>2021-09-28T17:15:42Z</time>
      </trkpt>
      <trkpt lat="48.92984" lon="2.11005">
        <ele>69.5</ele>
        <time>2021-09-28T17:15:48Z</time>
      </trkpt>
      <trkpt lat="48.92988" lon="2.11016">
        <ele>69.9</ele>
        <time>2021-09-28T17:15:54Z</time>
      </trkpt>
      <trkpt lat="48.92989" lon="2.11027">
        <ele>70.2</ele>
        <time>2021-09-28T17:16:00Z</time>
      </trkpt>
      <trkpt lat="48.92991" lon="2.11039">
        <ele>70.5</ele>
        <time>2021-09-28T17:16:06Z</time>
      </trkpt>
      <trkpt lat="48.92993" lon="2.11045">
        <ele>70.7</ele>
        <time>2021-09-28T17:16:11Z</time>
      </trkpt>
      <trkpt lat="48.92995" lon="2.11056">
        <ele>71.1</ele>
        <time>2021-09-28T17:16:17Z</time>
      </trkpt>
      <trkpt lat="48.92996" lon="2.11066">
        <ele>71.4</ele>
        <time>2021-09-28T17:16:23Z</time>
      </trkpt>
      <trkpt lat="48.92999" lon="2.11076">
        <ele>71.7</ele>
        <time>2021-09-28T17:16:29Z</time>
      </trkpt>
      <trkpt lat="48.93001" lon="2.11087">
        <ele>72.1</ele>
        <time>2021-09-28T17:16:35Z</time>
      </trkpt>
      <trkpt lat="48.93002" lon="2.11101">
        <ele>72.5</ele>
        <time>2021-09-28T17:16:40Z</time>
      </trkpt>
      <trkpt lat="48.93003" lon="2.1112">
        <ele>73.1</ele>
        <time>2021-09-28T17:16:46Z</time>
      </trkpt>
      <trkpt lat="48.93004" lon="2.11131">
        <ele>73.4</ele>
        <time>2021-09-28T17:16:51Z</time>
      </trkpt>
      <trkpt lat="48.93007" lon="2.11141">
        <ele>73.8</ele>
        <time>2021-09-28T17:16:57Z</time>
      </trkpt>
      <trkpt lat="48.9301" lon="2.11153">
        <ele>74.2</ele>
        <time>2021-09-28T17:17:03Z</time>
      </trkpt>
      <trkpt lat="48.93012" lon="2.11172">
        <ele>74.7</ele>
        <time>2021-09-28T17:17:09Z</time>
      </trkpt>
      <trkpt lat="48.93015" lon="2.11183">
        <ele>75</ele>
        <time>2021-09-28T17:17:14Z</time>
      </trkpt>
      <trkpt lat="48.93017" lon="2.11194">
        <ele>75.3</ele>
        <time>2021-09-28T17:17:20Z</time>
      </trkpt>
      <trkpt lat="48.93019" lon="2.11204">
        <ele>75.5</ele>
        <time>2021-09-28T17:17:25Z</time>
      </trkpt>
      <trkpt lat="48.9302" lon="2.11224">
        <ele>75.8</ele>
        <time>2021-09-28T17:17:31Z</time>
      </trkpt>
      <trkpt lat="48.93022" lon="2.11235">
        <ele>76</ele>
        <time>2021-09-28T17:17:37Z</time>
      </trkpt>
      <trkpt lat="48.93024" lon="2.11251">
        <ele>76.3</ele>
        <time>2021-09-28T17:17:43Z</time>
      </trkpt>
      <trkpt lat="48.93024" lon="2.11262">
        <ele>76.3</ele>
        <time>2021-09-28T17:17:48Z</time>
      </trkpt>
      <trkpt lat="48.93025" lon="2.11271">
        <ele>76.4</ele>
        <time>2021-09-28T17:17:53Z</time>
      </trkpt>
      <trkpt lat="48.93026" lon="2.11284">
        <ele>76.4</ele>
        <time>2021-09-28T17:17:59Z</time>
      </trkpt>
      <trkpt lat="48.9303" lon="2.11297">
        <ele>76.6</ele>
        <time>2021-09-28T17:18:05Z</time>
      </trkpt>
      <trkpt lat="48.93035" lon="2.11307">
        <ele>76.7</ele>
        <time>2021-09-28T17:18:10Z</time>
      </trkpt>
      <trkpt lat="48.93039" lon="2.1132">
        <ele>76.9</ele>
        <time>2021-09-28T17:18:16Z</time>
      </trkpt>
      <trkpt lat="48.93043" lon="2.11328">
        <ele>77</ele>
        <time>2021-09-28T17:18:21Z</time>
      </trkpt>
      <trkpt lat="48.93043" lon="2.11342">
        <ele>77</ele>
        <time>2021-09-28T17:18:27Z</time>
      </trkpt>
      <trkpt lat="48.93042" lon="2.11355">
        <ele>77</ele>
        <time>2021-09-28T17:18:33Z</time>
      </trkpt>
      <trkpt lat="48.93044" lon="2.11371">
        <ele>77</ele>
        <time>2021-09-28T17:18:39Z</time>
      </trkpt>
      <trkpt lat="48.93045" lon="2.11386">
        <ele>77</ele>
        <time>2021-09-28T17:18:44Z</time>
      </trkpt>
      <trkpt lat="48.93045" lon="2.11397">
        <ele>77</ele>
        <time>2021-09-28T17:18:49Z</time>
      </trkpt>
      <trkpt lat="48.93046" lon="2.11409">
        <ele>77</ele>
        <time>2021-09-28T17:18:55Z</time>
      </trkpt>
      <trkpt lat="48.93048" lon="2.1142">
        <ele>77</ele>
        <time>2021-09-28T17:19:01Z</time>
      </trkpt>
      <trkpt lat="48.9305" lon="2.1143">
        <ele>76.9</ele>
        <time>2021-09-28T17:19:06Z</time>
      </trkpt>
      <trkpt lat="48.93053" lon="2.11439">
        <ele>76.8</ele>
        <time>2021-09-28T17:19:11Z</time>
      </trkpt>
      <trkpt lat="48.93057" lon="2.1145">
        <ele>76.7</ele>
        <time>2021-09-28T17:19:17Z</time>
      </trkpt>
      <trkpt lat="48.9306" lon="2.11458">
        <ele>76.6</ele>
        <time>2021-09-28T17:19:23Z</time>
      </trkpt>
      <trkpt lat="48.9306" lon="2.1147">
        <ele>76.5</ele>
        <time>2021-09-28T17:19:29Z</time>
      </trkpt>
      <trkpt lat="48.9306" lon="2.11482">
        <ele>76.4</ele>
        <time>2021-09-28T17:19:34Z</time>
      </trkpt>
      <trkpt lat="48.93063" lon="2.11493">
        <ele>76.3</ele>
        <time>2021-09-28T17:19:40Z</time>
      </trkpt>
      <trkpt lat="48.93067" lon="2.11498">
        <ele>76.2</ele>
        <time>2021-09-28T17:19:45Z</time>
      </trkpt>
      <trkpt lat="48.93065" lon="2.11512">
        <ele>76.3</ele>
        <time>2021-09-28T17:19:51Z</time>
      </trkpt>
      <trkpt lat="48.93067" lon="2.1152">
        <ele>76.2</ele>
        <time>2021-09-28T17:19:57Z</time>
      </trkpt>
      <trkpt lat="48.93069" lon="2.11528">
        <ele>76.2</ele>
        <time>2021-09-28T17:20:02Z</time>
      </trkpt>
      <trkpt lat="48.93071" lon="2.11538">
        <ele>76.2</ele>
        <time>2021-09-28T17:20:07Z</time>
      </trkpt>
      <trkpt lat="48.93074" lon="2.1155">
        <ele>76.2</ele>
        <time>2021-09-28T17:20:13Z</time>
      </trkpt>
      <trkpt lat="48.93078" lon="2.11558">
        <ele>76.1</ele>
        <time>2021-09-28T17:20:18Z</time>
      </trkpt>
      <trkpt lat="48.93079" lon="2.11572">
        <ele>76.1</ele>
        <time>2021-09-28T17:20:24Z</time>
      </trkpt>
      <trkpt lat="48.93081" lon="2.11581">
        <ele>76.1</ele>
        <time>2021-09-28T17:20:29Z</time>
      </trkpt>
      <trkpt lat="48.9308" lon="2.11586">
        <ele>76.1</ele>
        <time>2021-09-28T17:20:35Z</time>
      </trkpt>
      <trkpt lat="48.9308" lon="2.11585">
        <ele>76.1</ele>
        <time>2021-09-28T17:20:41Z</time>
      </trkpt>
      <trkpt lat="48.93079" lon="2.11583">
        <ele>76.1</ele>
        <time>2021-09-28T17:20:47Z</time>
      </trkpt>
      <trkpt lat="48.93078" lon="2.11581">
        <ele>76.1</ele>
        <time>2021-09-28T17:20:52Z</time>
      </trkpt>
      <trkpt lat="48.93079" lon="2.1158">
        <ele>76.1</ele>
        <time>2021-09-28T17:20:58Z</time>
      </trkpt>
      <trkpt lat="48.93079" lon="2.1158">
        <ele>76.1</ele>
        <time>2021-09-28T17:21:03Z</time>
      </trkpt>
      <trkpt lat="48.93082" lon="2.11581">
        <ele>76</ele>
        <time>2021-09-28T17:21:09Z</time>
      </trkpt>
      <trkpt lat="48.93082" lon="2.11585">
        <ele>76</ele>
        <time>2021-09-28T17:21:15Z</time>
      </trkpt>
      <trkpt lat="48.9308" lon="2.11597">
        <ele>76.1</ele>
        <time>2021-09-28T17:21:21Z</time>
      </trkpt>
      <trkpt lat="48.9308" lon="2.11606">
        <ele>76.1</ele>
        <time>2021-09-28T17:21:27Z</time>
      </trkpt>
      <trkpt lat="48.93084" lon="2.11613">
        <ele>76</ele>
        <time>2021-09-28T17:21:32Z</time>
      </trkpt>
      <trkpt lat="48.93085" lon="2.11625">
        <ele>76.1</ele>
        <time>2021-09-28T17:21:38Z</time>
      </trkpt>
      <trkpt lat="48.93087" lon="2.11639">
        <ele>76.1</ele>
        <time>2021-09-28T17:21:44Z</time>
      </trkpt>
      <trkpt lat="48.93089" lon="2.11654">
        <ele>76.1</ele>
        <time>2021-09-28T17:21:50Z</time>
      </trkpt>
      <trkpt lat="48.93091" lon="2.11663">
        <ele>76.1</ele>
        <time>2021-09-28T17:21:55Z</time>
      </trkpt>
      <trkpt lat="48.93092" lon="2.1167">
        <ele>76</ele>
        <time>2021-09-28T17:22:00Z</time>
      </trkpt>
      <trkpt lat="48.93095" lon="2.11682">
        <ele>75.8</ele>
        <time>2021-09-28T17:22:06Z</time>
      </trkpt>
      <trkpt lat="48.93094" lon="2.11696">
        <ele>75.4</ele>
        <time>2021-09-28T17:22:11Z</time>
      </trkpt>
      <trkpt lat="48.93096" lon="2.1171">
        <ele>75.1</ele>
        <time>2021-09-28T17:22:17Z</time>
      </trkpt>
      <trkpt lat="48.93097" lon="2.11722">
        <ele>74.8</ele>
        <time>2021-09-28T17:22:23Z</time>
      </trkpt>
      <trkpt lat="48.93099" lon="2.1173">
        <ele>74.7</ele>
        <time>2021-09-28T17:22:28Z</time>
      </trkpt>
      <trkpt lat="48.93102" lon="2.11742">
        <ele>74.4</ele>
        <time>2021-09-28T17:22:33Z</time>
      </trkpt>
      <trkpt lat="48.93103" lon="2.11751">
        <ele>74.2</ele>
        <time>2021-09-28T17:22:38Z</time>
      </trkpt>
      <trkpt lat="48.93105" lon="2.11762">
        <ele>74.3</ele>
        <time>2021-09-28T17:22:44Z</time>
      </trkpt>
      <trkpt lat="48.93108" lon="2.11773">
        <ele>74.3</ele>
        <time>2021-09-28T17:22:49Z</time>
      </trkpt>
      <trkpt lat="48.93112" lon="2.1179">
        <ele>74.3</ele>
        <time>2021-09-28T17:22:55Z</time>
      </trkpt>
      <trkpt lat="48.93112" lon="2.11802">
        <ele>74.3</ele>
        <time>2021-09-28T17:23:01Z</time>
      </trkpt>
      <trkpt lat="48.93114" lon="2.11811">
        <ele>74.4</ele>
        <time>2021-09-28T17:23:06Z</time>
      </trkpt>
      <trkpt lat="48.93115" lon="2.11822">
        <ele>74.4</ele>
        <time>2021-09-28T17:23:11Z</time>
      </trkpt>
      <trkpt lat="48.93119" lon="2.11835">
        <ele>74.4</ele>
        <time>2021-09-28T17:23:17Z</time>
      </trkpt>
      <trkpt lat="48.93119" lon="2.11849">
        <ele>74.3</ele>
        <time>2021-09-28T17:23:23Z</time>
      </trkpt>
      <trkpt lat="48.93122" lon="2.11859">
        <ele>74.3</ele>
        <time>2021-09-28T17:23:28Z</time>
      </trkpt>
      <trkpt lat="48.93125" lon="2.11872">
        <ele>74.3</ele>
        <time>2021-09-28T17:23:34Z</time>
      </trkpt>
      <trkpt lat="48.93127" lon="2.11885">
        <ele>74.2</ele>
        <time>2021-09-28T17:23:40Z</time>
      </trkpt>
      <trkpt lat="48.93129" lon="2.11895">
        <ele>74.2</ele>
        <time>2021-09-28T17:23:45Z</time>
      </trkpt>
      <trkpt lat="48.93132" lon="2.11907">
        <ele>74.2</ele>
        <time>2021-09-28T17:23:50Z</time>
      </trkpt>
      <trkpt lat="48.93136" lon="2.1192">
        <ele>74.1</ele>
        <time>2021-09-28T17:23:56Z</time>
      </trkpt>
      <trkpt lat="48.93137" lon="2.11934">
        <ele>73.7</ele>
        <time>2021-09-28T17:24:02Z</time>
      </trkpt>
      <trkpt lat="48.93137" lon="2.11946">
        <ele>73.4</ele>
        <time>2021-09-28T17:24:08Z</time>
      </trkpt>
      <trkpt lat="48.93139" lon="2.11958">
        <ele>73</ele>
        <time>2021-09-28T17:24:14Z</time>
      </trkpt>
      <trkpt lat="48.9314" lon="2.11972">
        <ele>72.6</ele>
        <time>2021-09-28T17:24:20Z</time>
      </trkpt>
      <trkpt lat="48.93144" lon="2.11984">
        <ele>72.3</ele>
        <time>2021-09-28T17:24:26Z</time>
      </trkpt>
      <trkpt lat="48.93149" lon="2.11996">
        <ele>71.9</ele>
        <time>2021-09-28T17:24:32Z</time>
      </trkpt>
      <trkpt lat="48.9315" lon="2.12006">
        <ele>71.6</ele>
        <time>2021-09-28T17:24:37Z</time>
      </trkpt>
      <trkpt lat="48.93151" lon="2.12017">
        <ele>71.3</ele>
        <time>2021-09-28T17:24:42Z</time>
      </trkpt>
      <trkpt lat="48.93153" lon="2.12034">
        <ele>70.8</ele>
        <time>2021-09-28T17:24:48Z</time>
      </trkpt>
      <trkpt lat="48.93152" lon="2.12044">
        <ele>70.5</ele>
        <time>2021-09-28T17:24:53Z</time>
      </trkpt>
      <trkpt lat="48.93154" lon="2.12056">
        <ele>70.1</ele>
        <time>2021-09-28T17:24:59Z</time>
      </trkpt>
      <trkpt lat="48.93157" lon="2.12066">
        <ele>69.8</ele>
        <time>2021-09-28T17:25:04Z</time>
      </trkpt>
      <trkpt lat="48.9316" lon="2.12077">
        <ele>69.4</ele>
        <time>2021-09-28T17:25:10Z</time>
      </trkpt>
      <trkpt lat="48.93164" lon="2.12088">
        <ele>68.8</ele>
        <time>2021-09-28T17:25:15Z</time>
      </trkpt>
      <trkpt lat="48.93166" lon="2.12103">
        <ele>68.1</ele>
        <time>2021-09-28T17:25:21Z</time>
      </trkpt>
      <trkpt lat="48.93166" lon="2.12115">
        <ele>67.5</ele>
        <time>2021-09-28T17:25:26Z</time>
      </trkpt>
      <trkpt lat="48.93166" lon="2.12127">
        <ele>66.9</ele>
        <time>2021-09-28T17:25:32Z</time>
      </trkpt>
      <trkpt lat="48.93167" lon="2.12137">
        <ele>66.4</ele>
        <time>2021-09-28T17:25:37Z</time>
      </trkpt>
      <trkpt lat="48.93171" lon="2.1215">
        <ele>65.8</ele>
        <time>2021-09-28T17:25:43Z</time>
      </trkpt>
      <trkpt lat="48.93174" lon="2.12162">
        <ele>65.2</ele>
        <time>2021-09-28T17:25:48Z</time>
      </trkpt>
      <trkpt lat="48.93177" lon="2.12174">
        <ele>64.6</ele>
        <time>2021-09-28T17:25:54Z</time>
      </trkpt>
      <trkpt lat="48.93179" lon="2.12182">
        <ele>64.3</ele>
        <time>2021-09-28T17:25:59Z</time>
      </trkpt>
      <trkpt lat="48.9318" lon="2.12188">
        <ele>64</ele>
        <time>2021-09-28T17:26:04Z</time>
      </trkpt>
      <trkpt lat="48.9318" lon="2.122">
        <ele>63.5</ele>
        <time>2021-09-28T17:26:09Z</time>
      </trkpt>
      <trkpt lat="48.93175" lon="2.12213">
        <ele>62.8</ele>
        <time>2021-09-28T17:26:15Z</time>
      </trkpt>
      <trkpt lat="48.93169" lon="2.12221">
        <ele>62.4</ele>
        <time>2021-09-28T17:26:20Z</time>
      </trkpt>
      <trkpt lat="48.93161" lon="2.12229">
        <ele>61.7</ele>
        <time>2021-09-28T17:26:26Z</time>
      </trkpt>
      <trkpt lat="48.93154" lon="2.12234">
        <ele>61.1</ele>
        <time>2021-09-28T17:26:31Z</time>
      </trkpt>
      <trkpt lat="48.93147" lon="2.12238">
        <ele>60.6</ele>
        <time>2021-09-28T17:26:37Z</time>
      </trkpt>
      <trkpt lat="48.93139" lon="2.12237">
        <ele>60.2</ele>
        <time>2021-09-28T17:26:42Z</time>
      </trkpt>
      <trkpt lat="48.93131" lon="2.12236">
        <ele>59.8</ele>
        <time>2021-09-28T17:26:47Z</time>
      </trkpt>
      <trkpt lat="48.93124" lon="2.12229">
        <ele>60</ele>
        <time>2021-09-28T17:26:53Z</time>
      </trkpt>
      <trkpt lat="48.93118" lon="2.12223">
        <ele>60.1</ele>
        <time>2021-09-28T17:26:58Z</time>
      </trkpt>
      <trkpt lat="48.9311" lon="2.12218">
        <ele>60.2</ele>
        <time>2021-09-28T17:27:04Z</time>
      </trkpt>
      <trkpt lat="48.93103" lon="2.12212">
        <ele>60.4</ele>
        <time>2021-09-28T17:27:09Z</time>
      </trkpt>
      <trkpt lat="48.93096" lon="2.12206">
        <ele>60.6</ele>
        <time>2021-09-28T17:27:15Z</time>
      </trkpt>
      <trkpt lat="48.93088" lon="2.12199">
        <ele>61</ele>
        <time>2021-09-28T17:27:21Z</time>
      </trkpt>
      <trkpt lat="48.9308" lon="2.12192">
        <ele>61.4</ele>
        <time>2021-09-28T17:27:27Z</time>
      </trkpt>
      <trkpt lat="48.93073" lon="2.12185">
        <ele>61.8</ele>
        <time>2021-09-28T17:27:33Z</time>
      </trkpt>
      <trkpt lat="48.93066" lon="2.12178">
        <ele>62.1</ele>
        <time>2021-09-28T17:27:39Z</time>
      </trkpt>
      <trkpt lat="48.93058" lon="2.12172">
        <ele>62.2</ele>
        <time>2021-09-28T17:27:45Z</time>
      </trkpt>
      <trkpt lat="48.93051" lon="2.12166">
        <ele>62.5</ele>
        <time>2021-09-28T17:27:51Z</time>
      </trkpt>
      <trkpt lat="48.93044" lon="2.12159">
        <ele>62.9</ele>
        <time>2021-09-28T17:27:57Z</time>
      </trkpt>
      <trkpt lat="48.93037" lon="2.12155">
        <ele>62.8</ele>
        <time>2021-09-28T17:28:03Z</time>
      </trkpt>
      <trkpt lat="48.9303" lon="2.12149">
        <ele>63</ele>
        <time>2021-09-28T17:28:09Z</time>
      </trkpt>
      <trkpt lat="48.93025" lon="2.1214">
        <ele>63.6</ele>
        <time>2021-09-28T17:28:15Z</time>
      </trkpt>
      <trkpt lat="48.93019" lon="2.12133">
        <ele>64</ele>
        <time>2021-09-28T17:28:21Z</time>
      </trkpt>
      <trkpt lat="48.93013" lon="2.12125">
        <ele>64.6</ele>
        <time>2021-09-28T17:28:27Z</time>
      </trkpt>
      <trkpt lat="48.93007" lon="2.12117">
        <ele>65</ele>
        <time>2021-09-28T17:28:33Z</time>
      </trkpt>
      <trkpt lat="48.92999" lon="2.1211">
        <ele>65.4</ele>
        <time>2021-09-28T17:28:39Z</time>
      </trkpt>
      <trkpt lat="48.92991" lon="2.12103">
        <ele>65.7</ele>
        <time>2021-09-28T17:28:45Z</time>
      </trkpt>
      <trkpt lat="48.92984" lon="2.12096">
        <ele>66</ele>
        <time>2021-09-28T17:28:51Z</time>
      </trkpt>
      <trkpt lat="48.92975" lon="2.12091">
        <ele>66.1</ele>
        <time>2021-09-28T17:28:57Z</time>
      </trkpt>
      <trkpt lat="48.92969" lon="2.12083">
        <ele>66.6</ele>
        <time>2021-09-28T17:29:03Z</time>
      </trkpt>
      <trkpt lat="48.92962" lon="2.12076">
        <ele>66.7</ele>
        <time>2021-09-28T17:29:09Z</time>
      </trkpt>
      <trkpt lat="48.92954" lon="2.12067">
        <ele>67</ele>
        <time>2021-09-28T17:29:15Z</time>
      </trkpt>
      <trkpt lat="48.92948" lon="2.12057">
        <ele>67.5</ele>
        <time>2021-09-28T17:29:20Z</time>
      </trkpt>
      <trkpt lat="48.92943" lon="2.12051">
        <ele>67.7</ele>
        <time>2021-09-28T17:29:26Z</time>
      </trkpt>
      <trkpt lat="48.92933" lon="2.12049">
        <ele>67.5</ele>
        <time>2021-09-28T17:29:32Z</time>
      </trkpt>
      <trkpt lat="48.92924" lon="2.12045">
        <ele>67.5</ele>
        <time>2021-09-28T17:29:38Z</time>
      </trkpt>
      <trkpt lat="48.92917" lon="2.12042">
        <ele>67.5</ele>
        <time>2021-09-28T17:29:43Z</time>
      </trkpt>
      <trkpt lat="48.92909" lon="2.12037">
        <ele>67.7</ele>
        <time>2021-09-28T17:29:49Z</time>
      </trkpt>
      <trkpt lat="48.92903" lon="2.12032">
        <ele>68</ele>
        <time>2021-09-28T17:29:54Z</time>
      </trkpt>
      <trkpt lat="48.92897" lon="2.12024">
        <ele>68.6</ele>
        <time>2021-09-28T17:30:00Z</time>
      </trkpt>
      <trkpt lat="48.92895" lon="2.12017">
        <ele>69.2</ele>
        <time>2021-09-28T17:30:06Z</time>
      </trkpt>
      <trkpt lat="48.92898" lon="2.12005">
        <ele>70.3</ele>
        <time>2021-09-28T17:30:12Z</time>
      </trkpt>
      <trkpt lat="48.92903" lon="2.11998">
        <ele>70.9</ele>
        <time>2021-09-28T17:30:17Z</time>
      </trkpt>
      <trkpt lat="48.92907" lon="2.11983">
        <ele>71.3</ele>
        <time>2021-09-28T17:30:23Z</time>
      </trkpt>
      <trkpt lat="48.92908" lon="2.11973">
        <ele>71.5</ele>
        <time>2021-09-28T17:30:28Z</time>
      </trkpt>
      <trkpt lat="48.92909" lon="2.11964">
        <ele>71.8</ele>
        <time>2021-09-28T17:30:33Z</time>
      </trkpt>
      <trkpt lat="48.92914" lon="2.11954">
        <ele>72.1</ele>
        <time>2021-09-28T17:30:39Z</time>
      </trkpt>
      <trkpt lat="48.92918" lon="2.11941">
        <ele>72.5</ele>
        <time>2021-09-28T17:30:44Z</time>
      </trkpt>
      <trkpt lat="48.92921" lon="2.1193">
        <ele>72.8</ele>
        <time>2021-09-28T17:30:49Z</time>
      </trkpt>
      <trkpt lat="48.92927" lon="2.11917">
        <ele>73.2</ele>
        <time>2021-09-28T17:30:55Z</time>
      </trkpt>
      <trkpt lat="48.92929" lon="2.11906">
        <ele>73.4</ele>
        <time>2021-09-28T17:31:00Z</time>
      </trkpt>
      <trkpt lat="48.92933" lon="2.11895">
        <ele>73.6</ele>
        <time>2021-09-28T17:31:06Z</time>
      </trkpt>
      <trkpt lat="48.9294" lon="2.11882">
        <ele>73.9</ele>
        <time>2021-09-28T17:31:12Z</time>
      </trkpt>
      <trkpt lat="48.92944" lon="2.1187">
        <ele>74</ele>
        <time>2021-09-28T17:31:17Z</time>
      </trkpt>
      <trkpt lat="48.92948" lon="2.11861">
        <ele>74.2</ele>
        <time>2021-09-28T17:31:22Z</time>
      </trkpt>
      <trkpt lat="48.92952" lon="2.11851">
        <ele>74.3</ele>
        <time>2021-09-28T17:31:28Z</time>
      </trkpt>
      <trkpt lat="48.92957" lon="2.11843">
        <ele>74.4</ele>
        <time>2021-09-28T17:31:33Z</time>
      </trkpt>
      <trkpt lat="48.92957" lon="2.11827">
        <ele>74.6</ele>
        <time>2021-09-28T17:31:39Z</time>
      </trkpt>
      <trkpt lat="48.92961" lon="2.11815">
        <ele>74.7</ele>
        <time>2021-09-28T17:31:45Z</time>
      </trkpt>
      <trkpt lat="48.92963" lon="2.11805">
        <ele>74.9</ele>
        <time>2021-09-28T17:31:50Z</time>
      </trkpt>
      <trkpt lat="48.92966" lon="2.11796">
        <ele>75</ele>
        <time>2021-09-28T17:31:55Z</time>
      </trkpt>
      <trkpt lat="48.92971" lon="2.11787">
        <ele>75</ele>
        <time>2021-09-28T17:32:00Z</time>
      </trkpt>
      <trkpt lat="48.92973" lon="2.11776">
        <ele>75.1</ele>
        <time>2021-09-28T17:32:05Z</time>
      </trkpt>
      <trkpt lat="48.92974" lon="2.11768">
        <ele>75.2</ele>
        <time>2021-09-28T17:32:10Z</time>
      </trkpt>
      <trkpt lat="48.92976" lon="2.11757">
        <ele>75.2</ele>
        <time>2021-09-28T17:32:17Z</time>
      </trkpt>
      <trkpt lat="48.92978" lon="2.1175">
        <ele>75.3</ele>
        <time>2021-09-28T17:32:22Z</time>
      </trkpt>
      <trkpt lat="48.92978" lon="2.11739">
        <ele>75.4</ele>
        <time>2021-09-28T17:32:28Z</time>
      </trkpt>
      <trkpt lat="48.92974" lon="2.11731">
        <ele>75.5</ele>
        <time>2021-09-28T17:32:33Z</time>
      </trkpt>
      <trkpt lat="48.92966" lon="2.11723">
        <ele>75.7</ele>
        <time>2021-09-28T17:32:39Z</time>
      </trkpt>
      <trkpt lat="48.92961" lon="2.11716">
        <ele>75.9</ele>
        <time>2021-09-28T17:32:44Z</time>
      </trkpt>
      <trkpt lat="48.92956" lon="2.11705">
        <ele>76.1</ele>
        <time>2021-09-28T17:32:50Z</time>
      </trkpt>
      <trkpt lat="48.9295" lon="2.11697">
        <ele>76.2</ele>
        <time>2021-09-28T17:32:56Z</time>
      </trkpt>
      <trkpt lat="48.92944" lon="2.1169">
        <ele>76.4</ele>
        <time>2021-09-28T17:33:01Z</time>
      </trkpt>
      <trkpt lat="48.92935" lon="2.11685">
        <ele>76.6</ele>
        <time>2021-09-28T17:33:07Z</time>
      </trkpt>
      <trkpt lat="48.92928" lon="2.11679">
        <ele>76.7</ele>
        <time>2021-09-28T17:33:13Z</time>
      </trkpt>
      <trkpt lat="48.92921" lon="2.11673">
        <ele>76.9</ele>
        <time>2021-09-28T17:33:18Z</time>
      </trkpt>
      <trkpt lat="48.92912" lon="2.11668">
        <ele>76.8</ele>
        <time>2021-09-28T17:33:24Z</time>
      </trkpt>
      <trkpt lat="48.92905" lon="2.11662">
        <ele>76.6</ele>
        <time>2021-09-28T17:33:30Z</time>
      </trkpt>
      <trkpt lat="48.92898" lon="2.11657">
        <ele>76.3</ele>
        <time>2021-09-28T17:33:35Z</time>
      </trkpt>
      <trkpt lat="48.92893" lon="2.1165">
        <ele>76.1</ele>
        <time>2021-09-28T17:33:40Z</time>
      </trkpt>
      <trkpt lat="48.92887" lon="2.11641">
        <ele>75.8</ele>
        <time>2021-09-28T17:33:46Z</time>
      </trkpt>
      <trkpt lat="48.92879" lon="2.11634">
        <ele>75.5</ele>
        <time>2021-09-28T17:33:52Z</time>
      </trkpt>
      <trkpt lat="48.92876" lon="2.11629">
        <ele>75.3</ele>
        <time>2021-09-28T17:33:58Z</time>
      </trkpt>
      <trkpt lat="48.92873" lon="2.11622">
        <ele>75.2</ele>
        <time>2021-09-28T17:34:03Z</time>
      </trkpt>
      <trkpt lat="48.92868" lon="2.11613">
        <ele>74.9</ele>
        <time>2021-09-28T17:34:09Z</time>
      </trkpt>
      <trkpt lat="48.92863" lon="2.11599">
        <ele>74.6</ele>
        <time>2021-09-28T17:34:15Z</time>
      </trkpt>
      <trkpt lat="48.9286" lon="2.11588">
        <ele>74.3</ele>
        <time>2021-09-28T17:34:20Z</time>
      </trkpt>
      <trkpt lat="48.92856" lon="2.11578">
        <ele>74</ele>
        <time>2021-09-28T17:34:25Z</time>
      </trkpt>
      <trkpt lat="48.92854" lon="2.1157">
        <ele>73.7</ele>
        <time>2021-09-28T17:34:31Z</time>
      </trkpt>
      <trkpt lat="48.92856" lon="2.11555">
        <ele>73.4</ele>
        <time>2021-09-28T17:34:37Z</time>
      </trkpt>
      <trkpt lat="48.9286" lon="2.11546">
        <ele>73.4</ele>
        <time>2021-09-28T17:34:42Z</time>
      </trkpt>
      <trkpt lat="48.92864" lon="2.11536">
        <ele>73.3</ele>
        <time>2021-09-28T17:34:47Z</time>
      </trkpt>
      <trkpt lat="48.92869" lon="2.11528">
        <ele>73.4</ele>
        <time>2021-09-28T17:34:52Z</time>
      </trkpt>
      <trkpt lat="48.92875" lon="2.11519">
        <ele>73.5</ele>
        <time>2021-09-28T17:34:58Z</time>
      </trkpt>
      <trkpt lat="48.92879" lon="2.11513">
        <ele>73.5</ele>
        <time>2021-09-28T17:35:03Z</time>
      </trkpt>
      <trkpt lat="48.92885" lon="2.11502">
        <ele>73.5</ele>
        <time>2021-09-28T17:35:09Z</time>
      </trkpt>
      <trkpt lat="48.9289" lon="2.11489">
        <ele>73.7</ele>
        <time>2021-09-28T17:35:14Z</time>
      </trkpt>
      <trkpt lat="48.9289" lon="2.1148">
        <ele>73.7</ele>
        <time>2021-09-28T17:35:19Z</time>
      </trkpt>
      <trkpt lat="48.92889" lon="2.11469">
        <ele>73.7</ele>
        <time>2021-09-28T17:35:25Z</time>
      </trkpt>
      <trkpt lat="48.92888" lon="2.11457">
        <ele>73.6</ele>
        <time>2021-09-28T17:35:31Z</time>
      </trkpt>
      <trkpt lat="48.92885" lon="2.11442">
        <ele>73.4</ele>
        <time>2021-09-28T17:35:37Z</time>
      </trkpt>
      <trkpt lat="48.92883" lon="2.11434">
        <ele>73.2</ele>
        <time>2021-09-28T17:35:42Z</time>
      </trkpt>
      <trkpt lat="48.92879" lon="2.11419">
        <ele>72.9</ele>
        <time>2021-09-28T17:35:48Z</time>
      </trkpt>
      <trkpt lat="48.92882" lon="2.11408">
        <ele>73</ele>
        <time>2021-09-28T17:35:53Z</time>
      </trkpt>
      <trkpt lat="48.92883" lon="2.11402">
        <ele>73</ele>
        <time>2021-09-28T17:35:58Z</time>
      </trkpt>
      <trkpt lat="48.9288" lon="2.11396">
        <ele>72.7</ele>
        <time>2021-09-28T17:36:04Z</time>
      </trkpt>
      <trkpt lat="48.9288" lon="2.11389">
        <ele>72.6</ele>
        <time>2021-09-28T17:36:09Z</time>
      </trkpt>
      <trkpt lat="48.9288" lon="2.11381">
        <ele>72.5</ele>
        <time>2021-09-28T17:36:15Z</time>
      </trkpt>
      <trkpt lat="48.92881" lon="2.11379">
        <ele>72.6</ele>
        <time>2021-09-28T17:36:20Z</time>
      </trkpt>
      <trkpt lat="48.92885" lon="2.11375">
        <ele>73</ele>
        <time>2021-09-28T17:36:26Z</time>
      </trkpt>
      <trkpt lat="48.92895" lon="2.11368">
        <ele>73.9</ele>
        <time>2021-09-28T17:36:32Z</time>
      </trkpt>
      <trkpt lat="48.92898" lon="2.11358">
        <ele>74.2</ele>
        <time>2021-09-28T17:36:38Z</time>
      </trkpt>
      <trkpt lat="48.929" lon="2.1135">
        <ele>74.3</ele>
        <time>2021-09-28T17:36:43Z</time>
      </trkpt>
      <trkpt lat="48.92905" lon="2.11337">
        <ele>74.8</ele>
        <time>2021-09-28T17:36:49Z</time>
      </trkpt>
      <trkpt lat="48.92909" lon="2.11324">
        <ele>74.8</ele>
        <time>2021-09-28T17:36:55Z</time>
      </trkpt>
      <trkpt lat="48.92915" lon="2.11317">
        <ele>75.1</ele>
        <time>2021-09-28T17:37:01Z</time>
      </trkpt>
      <trkpt lat="48.92918" lon="2.11308">
        <ele>74.8</ele>
        <time>2021-09-28T17:37:06Z</time>
      </trkpt>
      <trkpt lat="48.92919" lon="2.11297">
        <ele>74.3</ele>
        <time>2021-09-28T17:37:11Z</time>
      </trkpt>
      <trkpt lat="48.9292" lon="2.1128">
        <ele>73.5</ele>
        <time>2021-09-28T17:37:17Z</time>
      </trkpt>
      <trkpt lat="48.92919" lon="2.1127">
        <ele>73</ele>
        <time>2021-09-28T17:37:22Z</time>
      </trkpt>
      <trkpt lat="48.92915" lon="2.11259">
        <ele>72.3</ele>
        <time>2021-09-28T17:37:27Z</time>
      </trkpt>
      <trkpt lat="48.9291" lon="2.1125">
        <ele>71.6</ele>
        <time>2021-09-28T17:37:33Z</time>
      </trkpt>
      <trkpt lat="48.92906" lon="2.11244">
        <ele>71.1</ele>
        <time>2021-09-28T17:37:38Z</time>
      </trkpt>
      <trkpt lat="48.929" lon="2.11239">
        <ele>70.5</ele>
        <time>2021-09-28T17:37:43Z</time>
      </trkpt>
      <trkpt lat="48.92893" lon="2.11232">
        <ele>69.9</ele>
        <time>2021-09-28T17:37:49Z</time>
      </trkpt>
      <trkpt lat="48.92886" lon="2.11225">
        <ele>69.4</ele>
        <time>2021-09-28T17:37:54Z</time>
      </trkpt>
      <trkpt lat="48.92881" lon="2.11214">
        <ele>68.9</ele>
        <time>2021-09-28T17:38:00Z</time>
      </trkpt>
      <trkpt lat="48.92881" lon="2.11204">
        <ele>68.7</ele>
        <time>2021-09-28T17:38:05Z</time>
      </trkpt>
      <trkpt lat="48.92882" lon="2.11193">
        <ele>68.6</ele>
        <time>2021-09-28T17:38:11Z</time>
      </trkpt>
      <trkpt lat="48.9288" lon="2.11182">
        <ele>68.4</ele>
        <time>2021-09-28T17:38:16Z</time>
      </trkpt>
      <trkpt lat="48.92881" lon="2.11168">
        <ele>68.2</ele>
        <time>2021-09-28T17:38:22Z</time>
      </trkpt>
      <trkpt lat="48.92881" lon="2.11158">
        <ele>68</ele>
        <time>2021-09-28T17:38:27Z</time>
      </trkpt>
      <trkpt lat="48.92878" lon="2.11147">
        <ele>67.8</ele>
        <time>2021-09-28T17:38:32Z</time>
      </trkpt>
      <trkpt lat="48.92875" lon="2.11137">
        <ele>67.6</ele>
        <time>2021-09-28T17:38:37Z</time>
      </trkpt>
      <trkpt lat="48.92869" lon="2.11125">
        <ele>67.4</ele>
        <time>2021-09-28T17:38:43Z</time>
      </trkpt>
      <trkpt lat="48.92863" lon="2.11115">
        <ele>67.3</ele>
        <time>2021-09-28T17:38:48Z</time>
      </trkpt>
      <trkpt lat="48.92857" lon="2.11105">
        <ele>67.1</ele>
        <time>2021-09-28T17:38:54Z</time>
      </trkpt>
      <trkpt lat="48.92849" lon="2.11097">
        <ele>67.1</ele>
        <time>2021-09-28T17:39:00Z</time>
      </trkpt>
      <trkpt lat="48.92842" lon="2.11094">
        <ele>67</ele>
        <time>2021-09-28T17:39:06Z</time>
      </trkpt>
      <trkpt lat="48.92836" lon="2.11092">
        <ele>67</ele>
        <time>2021-09-28T17:39:12Z</time>
      </trkpt>
      <trkpt lat="48.9283" lon="2.11086">
        <ele>67.1</ele>
        <time>2021-09-28T17:39:17Z</time>
      </trkpt>
      <trkpt lat="48.92823" lon="2.11079">
        <ele>67.6</ele>
        <time>2021-09-28T17:39:22Z</time>
      </trkpt>
      <trkpt lat="48.92814" lon="2.11073">
        <ele>68.2</ele>
        <time>2021-09-28T17:39:28Z</time>
      </trkpt>
      <trkpt lat="48.92807" lon="2.11067">
        <ele>68.7</ele>
        <time>2021-09-28T17:39:34Z</time>
      </trkpt>
      <trkpt lat="48.928" lon="2.11061">
        <ele>69.2</ele>
        <time>2021-09-28T17:39:40Z</time>
      </trkpt>
      <trkpt lat="48.92792" lon="2.11056">
        <ele>69.6</ele>
        <time>2021-09-28T17:39:46Z</time>
      </trkpt>
      <trkpt lat="48.92784" lon="2.1105">
        <ele>70.2</ele>
        <time>2021-09-28T17:39:52Z</time>
      </trkpt>
      <trkpt lat="48.92778" lon="2.11043">
        <ele>70.6</ele>
        <time>2021-09-28T17:39:58Z</time>
      </trkpt>
      <trkpt lat="48.92771" lon="2.11036">
        <ele>71.1</ele>
        <time>2021-09-28T17:40:04Z</time>
      </trkpt>
      <trkpt lat="48.92763" lon="2.11027">
        <ele>71.7</ele>
        <time>2021-09-28T17:40:10Z</time>
      </trkpt>
      <trkpt lat="48.92754" lon="2.11018">
        <ele>72.2</ele>
        <time>2021-09-28T17:40:16Z</time>
      </trkpt>
      <trkpt lat="48.92746" lon="2.11009">
        <ele>72.5</ele>
        <time>2021-09-28T17:40:22Z</time>
      </trkpt>
      <trkpt lat="48.92739" lon="2.11006">
        <ele>72.3</ele>
        <time>2021-09-28T17:40:27Z</time>
      </trkpt>
      <trkpt lat="48.92732" lon="2.11002">
        <ele>72.1</ele>
        <time>2021-09-28T17:40:32Z</time>
      </trkpt>
      <trkpt lat="48.92723" lon="2.10995">
        <ele>71.8</ele>
        <time>2021-09-28T17:40:38Z</time>
      </trkpt>
      <trkpt lat="48.92715" lon="2.10985">
        <ele>71.7</ele>
        <time>2021-09-28T17:40:44Z</time>
      </trkpt>
      <trkpt lat="48.92708" lon="2.10981">
        <ele>71.5</ele>
        <time>2021-09-28T17:40:50Z</time>
      </trkpt>
      <trkpt lat="48.92701" lon="2.10977">
        <ele>71.4</ele>
        <time>2021-09-28T17:40:55Z</time>
      </trkpt>
      <trkpt lat="48.92695" lon="2.10973">
        <ele>71.3</ele>
        <time>2021-09-28T17:41:00Z</time>
      </trkpt>
      <trkpt lat="48.92687" lon="2.10966">
        <ele>71.3</ele>
        <time>2021-09-28T17:41:05Z</time>
      </trkpt>
      <trkpt lat="48.9268" lon="2.1096">
        <ele>71.3</ele>
        <time>2021-09-28T17:41:11Z</time>
      </trkpt>
      <trkpt lat="48.92673" lon="2.10953">
        <ele>71.4</ele>
        <time>2021-09-28T17:41:16Z</time>
      </trkpt>
      <trkpt lat="48.92662" lon="2.10949">
        <ele>71.3</ele>
        <time>2021-09-28T17:41:22Z</time>
      </trkpt>
      <trkpt lat="48.92654" lon="2.10943">
        <ele>71.1</ele>
        <time>2021-09-28T17:41:28Z</time>
      </trkpt>
      <trkpt lat="48.92647" lon="2.10941">
        <ele>70.9</ele>
        <time>2021-09-28T17:41:33Z</time>
      </trkpt>
      <trkpt lat="48.92641" lon="2.10933">
        <ele>70.9</ele>
        <time>2021-09-28T17:41:38Z</time>
      </trkpt>
      <trkpt lat="48.92636" lon="2.10927">
        <ele>70.8</ele>
        <time>2021-09-28T17:41:43Z</time>
      </trkpt>
      <trkpt lat="48.92628" lon="2.1092">
        <ele>70.6</ele>
        <time>2021-09-28T17:41:48Z</time>
      </trkpt>
      <trkpt lat="48.92619" lon="2.10916">
        <ele>70.2</ele>
        <time>2021-09-28T17:41:54Z</time>
      </trkpt>
      <trkpt lat="48.92612" lon="2.10911">
        <ele>69.8</ele>
        <time>2021-09-28T17:42:00Z</time>
      </trkpt>
      <trkpt lat="48.92604" lon="2.10905">
        <ele>69.4</ele>
        <time>2021-09-28T17:42:05Z</time>
      </trkpt>
      <trkpt lat="48.92597" lon="2.10898">
        <ele>69.2</ele>
        <time>2021-09-28T17:42:10Z</time>
      </trkpt>
      <trkpt lat="48.92591" lon="2.10891">
        <ele>69</ele>
        <time>2021-09-28T17:42:16Z</time>
      </trkpt>
      <trkpt lat="48.92582" lon="2.10883">
        <ele>68.9</ele>
        <time>2021-09-28T17:42:22Z</time>
      </trkpt>
      <trkpt lat="48.92575" lon="2.10878">
        <ele>69.5</ele>
        <time>2021-09-28T17:42:27Z</time>
      </trkpt>
      <trkpt lat="48.92567" lon="2.10873">
        <ele>70.1</ele>
        <time>2021-09-28T17:42:33Z</time>
      </trkpt>
      <trkpt lat="48.92561" lon="2.10869">
        <ele>70.6</ele>
        <time>2021-09-28T17:42:38Z</time>
      </trkpt>
      <trkpt lat="48.92555" lon="2.10862">
        <ele>71.1</ele>
        <time>2021-09-28T17:42:43Z</time>
      </trkpt>
      <trkpt lat="48.92548" lon="2.10857">
        <ele>71.7</ele>
        <time>2021-09-28T17:42:49Z</time>
      </trkpt>
      <trkpt lat="48.92542" lon="2.10854">
        <ele>72.1</ele>
        <time>2021-09-28T17:42:54Z</time>
      </trkpt>
      <trkpt lat="48.92536" lon="2.10843">
        <ele>72.7</ele>
        <time>2021-09-28T17:42:59Z</time>
      </trkpt>
      <trkpt lat="48.9253" lon="2.10837">
        <ele>73.2</ele>
        <time>2021-09-28T17:43:05Z</time>
      </trkpt>
      <trkpt lat="48.92522" lon="2.10833">
        <ele>73.7</ele>
        <time>2021-09-28T17:43:11Z</time>
      </trkpt>
      <trkpt lat="48.92514" lon="2.10831">
        <ele>74.1</ele>
        <time>2021-09-28T17:43:16Z</time>
      </trkpt>
      <trkpt lat="48.92507" lon="2.10826">
        <ele>74.5</ele>
        <time>2021-09-28T17:43:22Z</time>
      </trkpt>
      <trkpt lat="48.92503" lon="2.10819">
        <ele>74.7</ele>
        <time>2021-09-28T17:43:28Z</time>
      </trkpt>
      <trkpt lat="48.92493" lon="2.10814">
        <ele>74.9</ele>
        <time>2021-09-28T17:43:34Z</time>
      </trkpt>
      <trkpt lat="48.92487" lon="2.10805">
        <ele>75</ele>
        <time>2021-09-28T17:43:40Z</time>
      </trkpt>
      <trkpt lat="48.9248" lon="2.10799">
        <ele>75.1</ele>
        <time>2021-09-28T17:43:45Z</time>
      </trkpt>
      <trkpt lat="48.92475" lon="2.10794">
        <ele>75.3</ele>
        <time>2021-09-28T17:43:50Z</time>
      </trkpt>
      <trkpt lat="48.92465" lon="2.10784">
        <ele>75.5</ele>
        <time>2021-09-28T17:43:56Z</time>
      </trkpt>
      <trkpt lat="48.92458" lon="2.1078">
        <ele>75.7</ele>
        <time>2021-09-28T17:44:02Z</time>
      </trkpt>
      <trkpt lat="48.92451" lon="2.10777">
        <ele>75.9</ele>
        <time>2021-09-28T17:44:08Z</time>
      </trkpt>
      <trkpt lat="48.92443" lon="2.10769">
        <ele>76.1</ele>
        <time>2021-09-28T17:44:14Z</time>
      </trkpt>
      <trkpt lat="48.92436" lon="2.10764">
        <ele>76.3</ele>
        <time>2021-09-28T17:44:19Z</time>
      </trkpt>
      <trkpt lat="48.92427" lon="2.10757">
        <ele>76.6</ele>
        <time>2021-09-28T17:44:25Z</time>
      </trkpt>
      <trkpt lat="48.92421" lon="2.10754">
        <ele>76.8</ele>
        <time>2021-09-28T17:44:31Z</time>
      </trkpt>
      <trkpt lat="48.92413" lon="2.10747">
        <ele>77</ele>
        <time>2021-09-28T17:44:37Z</time>
      </trkpt>
      <trkpt lat="48.92404" lon="2.10743">
        <ele>77.1</ele>
        <time>2021-09-28T17:44:43Z</time>
      </trkpt>
      <trkpt lat="48.924" lon="2.10737">
        <ele>77.2</ele>
        <time>2021-09-28T17:44:48Z</time>
      </trkpt>
      <trkpt lat="48.9239" lon="2.10727">
        <ele>77.4</ele>
        <time>2021-09-28T17:44:54Z</time>
      </trkpt>
      <trkpt lat="48.92384" lon="2.10721">
        <ele>77.5</ele>
        <time>2021-09-28T17:44:59Z</time>
      </trkpt>
      <trkpt lat="48.92377" lon="2.10718">
        <ele>77.6</ele>
        <time>2021-09-28T17:45:04Z</time>
      </trkpt>
      <trkpt lat="48.92369" lon="2.10713">
        <ele>77.7</ele>
        <time>2021-09-28T17:45:10Z</time>
      </trkpt>
      <trkpt lat="48.92362" lon="2.10709">
        <ele>77.8</ele>
        <time>2021-09-28T17:45:16Z</time>
      </trkpt>
      <trkpt lat="48.92354" lon="2.10703">
        <ele>78</ele>
        <time>2021-09-28T17:45:22Z</time>
      </trkpt>
      <trkpt lat="48.92347" lon="2.10697">
        <ele>78.2</ele>
        <time>2021-09-28T17:45:28Z</time>
      </trkpt>
      <trkpt lat="48.92339" lon="2.10691">
        <ele>78.4</ele>
        <time>2021-09-28T17:45:34Z</time>
      </trkpt>
      <trkpt lat="48.92332" lon="2.10685">
        <ele>78.5</ele>
        <time>2021-09-28T17:45:40Z</time>
      </trkpt>
      <trkpt lat="48.92328" lon="2.10676">
        <ele>78.3</ele>
        <time>2021-09-28T17:45:46Z</time>
      </trkpt>
      <trkpt lat="48.9232" lon="2.10667">
        <ele>77.8</ele>
        <time>2021-09-28T17:45:52Z</time>
      </trkpt>
      <trkpt lat="48.92313" lon="2.10661">
        <ele>77.4</ele>
        <time>2021-09-28T17:45:57Z</time>
      </trkpt>
      <trkpt lat="48.92303" lon="2.10655">
        <ele>76.9</ele>
        <time>2021-09-28T17:46:03Z</time>
      </trkpt>
      <trkpt lat="48.92296" lon="2.10651">
        <ele>76.5</ele>
        <time>2021-09-28T17:46:09Z</time>
      </trkpt>
      <trkpt lat="48.92292" lon="2.1065">
        <ele>76.2</ele>
        <time>2021-09-28T17:46:14Z</time>
      </trkpt>
      <trkpt lat="48.92282" lon="2.10643">
        <ele>75.8</ele>
        <time>2021-09-28T17:46:20Z</time>
      </trkpt>
      <trkpt lat="48.92275" lon="2.10637">
        <ele>75.6</ele>
        <time>2021-09-28T17:46:25Z</time>
      </trkpt>
      <trkpt lat="48.92267" lon="2.10629">
        <ele>75.4</ele>
        <time>2021-09-28T17:46:31Z</time>
      </trkpt>
      <trkpt lat="48.92259" lon="2.10623">
        <ele>75.2</ele>
        <time>2021-09-28T17:46:37Z</time>
      </trkpt>
      <trkpt lat="48.92251" lon="2.1062">
        <ele>74.9</ele>
        <time>2021-09-28T17:46:43Z</time>
      </trkpt>
      <trkpt lat="48.92245" lon="2.10614">
        <ele>74.7</ele>
        <time>2021-09-28T17:46:49Z</time>
      </trkpt>
      <trkpt lat="48.92236" lon="2.10605">
        <ele>74.3</ele>
        <time>2021-09-28T17:46:55Z</time>
      </trkpt>
      <trkpt lat="48.92227" lon="2.10596">
        <ele>74</ele>
        <time>2021-09-28T17:47:01Z</time>
      </trkpt>
      <trkpt lat="48.92222" lon="2.1059">
        <ele>73.9</ele>
        <time>2021-09-28T17:47:06Z</time>
      </trkpt>
      <trkpt lat="48.92216" lon="2.10584">
        <ele>73.7</ele>
        <time>2021-09-28T17:47:12Z</time>
      </trkpt>
      <trkpt lat="48.92209" lon="2.10577">
        <ele>73.5</ele>
        <time>2021-09-28T17:47:18Z</time>
      </trkpt>
      <trkpt lat="48.922" lon="2.1057">
        <ele>73.2</ele>
        <time>2021-09-28T17:47:24Z</time>
      </trkpt>
      <trkpt lat="48.92191" lon="2.10567">
        <ele>72.6</ele>
        <time>2021-09-28T17:47:29Z</time>
      </trkpt>
      <trkpt lat="48.92186" lon="2.10561">
        <ele>72.7</ele>
        <time>2021-09-28T17:47:35Z</time>
      </trkpt>
      <trkpt lat="48.9218" lon="2.10554">
        <ele>72.8</ele>
        <time>2021-09-28T17:47:40Z</time>
      </trkpt>
      <trkpt lat="48.92172" lon="2.10546">
        <ele>73</ele>
        <time>2021-09-28T17:47:45Z</time>
      </trkpt>
      <trkpt lat="48.92162" lon="2.10538">
        <ele>73</ele>
        <time>2021-09-28T17:47:51Z</time>
      </trkpt>
      <trkpt lat="48.92153" lon="2.10531">
        <ele>72.7</ele>
        <time>2021-09-28T17:47:57Z</time>
      </trkpt>
      <trkpt lat="48.92144" lon="2.10526">
        <ele>72.3</ele>
        <time>2021-09-28T17:48:03Z</time>
      </trkpt>
      <trkpt lat="48.92136" lon="2.1052">
        <ele>72.2</ele>
        <time>2021-09-28T17:48:09Z</time>
      </trkpt>
      <trkpt lat="48.92128" lon="2.10512">
        <ele>71.9</ele>
        <time>2021-09-28T17:48:15Z</time>
      </trkpt>
      <trkpt lat="48.9212" lon="2.10505">
        <ele>71.6</ele>
        <time>2021-09-28T17:48:21Z</time>
      </trkpt>
      <trkpt lat="48.92113" lon="2.105">
        <ele>71.2</ele>
        <time>2021-09-28T17:48:26Z</time>
      </trkpt>
      <trkpt lat="48.92106" lon="2.10495">
        <ele>70.6</ele>
        <time>2021-09-28T17:48:32Z</time>
      </trkpt>
      <trkpt lat="48.92102" lon="2.10492">
        <ele>70.3</ele>
        <time>2021-09-28T17:48:37Z</time>
      </trkpt>
      <trkpt lat="48.92095" lon="2.10487">
        <ele>69.7</ele>
        <time>2021-09-28T17:48:42Z</time>
      </trkpt>
      <trkpt lat="48.92087" lon="2.10482">
        <ele>69.1</ele>
        <time>2021-09-28T17:48:47Z</time>
      </trkpt>
      <trkpt lat="48.9208" lon="2.10476">
        <ele>68.6</ele>
        <time>2021-09-28T17:48:53Z</time>
      </trkpt>
      <trkpt lat="48.92073" lon="2.1047">
        <ele>68.3</ele>
        <time>2021-09-28T17:48:58Z</time>
      </trkpt>
      <trkpt lat="48.92067" lon="2.10466">
        <ele>67.9</ele>
        <time>2021-09-28T17:49:03Z</time>
      </trkpt>
      <trkpt lat="48.92059" lon="2.10459">
        <ele>67.4</ele>
        <time>2021-09-28T17:49:09Z</time>
      </trkpt>
      <trkpt lat="48.92049" lon="2.10453">
        <ele>66.7</ele>
        <time>2021-09-28T17:49:15Z</time>
      </trkpt>
      <trkpt lat="48.92042" lon="2.10444">
        <ele>66.4</ele>
        <time>2021-09-28T17:49:20Z</time>
      </trkpt>
      <trkpt lat="48.92036" lon="2.10438">
        <ele>66</ele>
        <time>2021-09-28T17:49:26Z</time>
      </trkpt>
      <trkpt lat="48.92026" lon="2.10433">
        <ele>65.2</ele>
        <time>2021-09-28T17:49:32Z</time>
      </trkpt>
      <trkpt lat="48.92019" lon="2.10427">
        <ele>64.6</ele>
        <time>2021-09-28T17:49:38Z</time>
      </trkpt>
      <trkpt lat="48.92014" lon="2.10419">
        <ele>64.3</ele>
        <time>2021-09-28T17:49:43Z</time>
      </trkpt>
      <trkpt lat="48.92009" lon="2.10409">
        <ele>64.4</ele>
        <time>2021-09-28T17:49:49Z</time>
      </trkpt>
      <trkpt lat="48.92005" lon="2.10399">
        <ele>64.8</ele>
        <time>2021-09-28T17:49:54Z</time>
      </trkpt>
      <trkpt lat="48.92001" lon="2.10389">
        <ele>65.1</ele>
        <time>2021-09-28T17:49:59Z</time>
      </trkpt>
      <trkpt lat="48.91997" lon="2.10381">
        <ele>65.4</ele>
        <time>2021-09-28T17:50:05Z</time>
      </trkpt>
      <trkpt lat="48.91995" lon="2.10376">
        <ele>65.6</ele>
        <time>2021-09-28T17:50:10Z</time>
      </trkpt>
      <trkpt lat="48.91992" lon="2.10371">
        <ele>65.9</ele>
        <time>2021-09-28T17:50:16Z</time>
      </trkpt>
      <trkpt lat="48.91987" lon="2.1036">
        <ele>66.3</ele>
        <time>2021-09-28T17:50:22Z</time>
      </trkpt>
      <trkpt lat="48.91985" lon="2.10353">
        <ele>66.6</ele>
        <time>2021-09-28T17:50:27Z</time>
      </trkpt>
      <trkpt lat="48.91982" lon="2.10341">
        <ele>67.2</ele>
        <time>2021-09-28T17:50:33Z</time>
      </trkpt>
      <trkpt lat="48.91978" lon="2.10329">
        <ele>67.6</ele>
        <time>2021-09-28T17:50:39Z</time>
      </trkpt>
      <trkpt lat="48.91975" lon="2.10321">
        <ele>67.7</ele>
        <time>2021-09-28T17:50:44Z</time>
      </trkpt>
      <trkpt lat="48.91972" lon="2.10312">
        <ele>67.8</ele>
        <time>2021-09-28T17:50:49Z</time>
      </trkpt>
      <trkpt lat="48.91969" lon="2.103">
        <ele>68</ele>
        <time>2021-09-28T17:50:55Z</time>
      </trkpt>
      <trkpt lat="48.91962" lon="2.10286">
        <ele>68</ele>
        <time>2021-09-28T17:51:01Z</time>
      </trkpt>
      <trkpt lat="48.91958" lon="2.10274">
        <ele>68.1</ele>
        <time>2021-09-28T17:51:07Z</time>
      </trkpt>
      <trkpt lat="48.91954" lon="2.10263">
        <ele>68.1</ele>
        <time>2021-09-28T17:51:13Z</time>
      </trkpt>
      <trkpt lat="48.91951" lon="2.10253">
        <ele>68.1</ele>
        <time>2021-09-28T17:51:18Z</time>
      </trkpt>
      <trkpt lat="48.91947" lon="2.10245">
        <ele>68</ele>
        <time>2021-09-28T17:51:23Z</time>
      </trkpt>
      <trkpt lat="48.91944" lon="2.10235">
        <ele>67.9</ele>
        <time>2021-09-28T17:51:28Z</time>
      </trkpt>
      <trkpt lat="48.91944" lon="2.10221">
        <ele>68.2</ele>
        <time>2021-09-28T17:51:34Z</time>
      </trkpt>
      <trkpt lat="48.91943" lon="2.10208">
        <ele>68.4</ele>
        <time>2021-09-28T17:51:40Z</time>
      </trkpt>
      <trkpt lat="48.91944" lon="2.10194">
        <ele>68.7</ele>
        <time>2021-09-28T17:51:46Z</time>
      </trkpt>
      <trkpt lat="48.91943" lon="2.10184">
        <ele>68.9</ele>
        <time>2021-09-28T17:51:51Z</time>
      </trkpt>
      <trkpt lat="48.91938" lon="2.10172">
        <ele>68.7</ele>
        <time>2021-09-28T17:51:57Z</time>
      </trkpt>
      <trkpt lat="48.91931" lon="2.10161">
        <ele>68.2</ele>
        <time>2021-09-28T17:52:03Z</time>
      </trkpt>
      <trkpt lat="48.91923" lon="2.10157">
        <ele>67.5</ele>
        <time>2021-09-28T17:52:09Z</time>
      </trkpt>
      <trkpt lat="48.91917" lon="2.10147">
        <ele>67</ele>
        <time>2021-09-28T17:52:14Z</time>
      </trkpt>
      <trkpt lat="48.9191" lon="2.10141">
        <ele>66.7</ele>
        <time>2021-09-28T17:52:19Z</time>
      </trkpt>
      <trkpt lat="48.91902" lon="2.10139">
        <ele>66.3</ele>
        <time>2021-09-28T17:52:24Z</time>
      </trkpt>
      <trkpt lat="48.91896" lon="2.10138">
        <ele>65.9</ele>
        <time>2021-09-28T17:52:29Z</time>
      </trkpt>
      <trkpt lat="48.91893" lon="2.10133">
        <ele>65.8</ele>
        <time>2021-09-28T17:52:35Z</time>
      </trkpt>
      <trkpt lat="48.91886" lon="2.10124">
        <ele>65.6</ele>
        <time>2021-09-28T17:52:41Z</time>
      </trkpt>
      <trkpt lat="48.91882" lon="2.10117">
        <ele>65.4</ele>
        <time>2021-09-28T17:52:47Z</time>
      </trkpt>
      <trkpt lat="48.91879" lon="2.10109">
        <ele>65.3</ele>
        <time>2021-09-28T17:52:52Z</time>
      </trkpt>
      <trkpt lat="48.91873" lon="2.10098">
        <ele>65.3</ele>
        <time>2021-09-28T17:52:58Z</time>
      </trkpt>
      <trkpt lat="48.9187" lon="2.10089">
        <ele>65.2</ele>
        <time>2021-09-28T17:53:03Z</time>
      </trkpt>
      <trkpt lat="48.91865" lon="2.1008">
        <ele>65.2</ele>
        <time>2021-09-28T17:53:08Z</time>
      </trkpt>
      <trkpt lat="48.9186" lon="2.10073">
        <ele>65.2</ele>
        <time>2021-09-28T17:53:14Z</time>
      </trkpt>
      <trkpt lat="48.91855" lon="2.10065">
        <ele>65.2</ele>
        <time>2021-09-28T17:53:19Z</time>
      </trkpt>
      <trkpt lat="48.91848" lon="2.10052">
        <ele>65.1</ele>
        <time>2021-09-28T17:53:25Z</time>
      </trkpt>
      <trkpt lat="48.91841" lon="2.10042">
        <ele>64.9</ele>
        <time>2021-09-28T17:53:31Z</time>
      </trkpt>
      <trkpt lat="48.9184" lon="2.10033">
        <ele>65</ele>
        <time>2021-09-28T17:53:36Z</time>
      </trkpt>
      <trkpt lat="48.91837" lon="2.10022">
        <ele>64.9</ele>
        <time>2021-09-28T17:53:41Z</time>
      </trkpt>
      <trkpt lat="48.91832" lon="2.10013">
        <ele>64.8</ele>
        <time>2021-09-28T17:53:46Z</time>
      </trkpt>
      <trkpt lat="48.91829" lon="2.10005">
        <ele>64.7</ele>
        <time>2021-09-28T17:53:51Z</time>
      </trkpt>
      <trkpt lat="48.91826" lon="2.09996">
        <ele>64.7</ele>
        <time>2021-09-28T17:53:57Z</time>
      </trkpt>
      <trkpt lat="48.9182" lon="2.09988">
        <ele>64.5</ele>
        <time>2021-09-28T17:54:02Z</time>
      </trkpt>
      <trkpt lat="48.91816" lon="2.09979">
        <ele>64.4</ele>
        <time>2021-09-28T17:54:07Z</time>
      </trkpt>
      <trkpt lat="48.9181" lon="2.09968">
        <ele>64.3</ele>
        <time>2021-09-28T17:54:12Z</time>
      </trkpt>
      <trkpt lat="48.91806" lon="2.09958">
        <ele>64.2</ele>
        <time>2021-09-28T17:54:17Z</time>
      </trkpt>
      <trkpt lat="48.91799" lon="2.09945">
        <ele>64</ele>
        <time>2021-09-28T17:54:23Z</time>
      </trkpt>
      <trkpt lat="48.91794" lon="2.09933">
        <ele>63.9</ele>
        <time>2021-09-28T17:54:29Z</time>
      </trkpt>
      <trkpt lat="48.9179" lon="2.09926">
        <ele>63.8</ele>
        <time>2021-09-28T17:54:34Z</time>
      </trkpt>
      <trkpt lat="48.91786" lon="2.09917">
        <ele>63.7</ele>
        <time>2021-09-28T17:54:39Z</time>
      </trkpt>
      <trkpt lat="48.91781" lon="2.09908">
        <ele>63.7</ele>
        <time>2021-09-28T17:54:44Z</time>
      </trkpt>
      <trkpt lat="48.91777" lon="2.09895">
        <ele>63.7</ele>
        <time>2021-09-28T17:54:50Z</time>
      </trkpt>
      <trkpt lat="48.9177" lon="2.09884">
        <ele>63.6</ele>
        <time>2021-09-28T17:54:56Z</time>
      </trkpt>
      <trkpt lat="48.91765" lon="2.09877">
        <ele>63.6</ele>
        <time>2021-09-28T17:55:01Z</time>
      </trkpt>
      <trkpt lat="48.9176" lon="2.09866">
        <ele>63.6</ele>
        <time>2021-09-28T17:55:07Z</time>
      </trkpt>
      <trkpt lat="48.91753" lon="2.09855">
        <ele>63.6</ele>
        <time>2021-09-28T17:55:13Z</time>
      </trkpt>
      <trkpt lat="48.91749" lon="2.09846">
        <ele>63.7</ele>
        <time>2021-09-28T17:55:18Z</time>
      </trkpt>
      <trkpt lat="48.91744" lon="2.09837">
        <ele>64</ele>
        <time>2021-09-28T17:55:23Z</time>
      </trkpt>
      <trkpt lat="48.91739" lon="2.09827">
        <ele>64.3</ele>
        <time>2021-09-28T17:55:29Z</time>
      </trkpt>
      <trkpt lat="48.91734" lon="2.09815">
        <ele>64.6</ele>
        <time>2021-09-28T17:55:35Z</time>
      </trkpt>
      <trkpt lat="48.91729" lon="2.09805">
        <ele>64.8</ele>
        <time>2021-09-28T17:55:41Z</time>
      </trkpt>
      <trkpt lat="48.91726" lon="2.09797">
        <ele>65</ele>
        <time>2021-09-28T17:55:46Z</time>
      </trkpt>
      <trkpt lat="48.91722" lon="2.09788">
        <ele>65.2</ele>
        <time>2021-09-28T17:55:51Z</time>
      </trkpt>
      <trkpt lat="48.91717" lon="2.09778">
        <ele>65.5</ele>
        <time>2021-09-28T17:55:57Z</time>
      </trkpt>
      <trkpt lat="48.91712" lon="2.09768">
        <ele>65.7</ele>
        <time>2021-09-28T17:56:03Z</time>
      </trkpt>
      <trkpt lat="48.91708" lon="2.0976">
        <ele>65.8</ele>
        <time>2021-09-28T17:56:08Z</time>
      </trkpt>
      <trkpt lat="48.91703" lon="2.09751">
        <ele>66</ele>
        <time>2021-09-28T17:56:15Z</time>
      </trkpt>
      <trkpt lat="48.91698" lon="2.09741">
        <ele>66.3</ele>
        <time>2021-09-28T17:56:20Z</time>
      </trkpt>
      <trkpt lat="48.91693" lon="2.0973">
        <ele>66.6</ele>
        <time>2021-09-28T17:56:26Z</time>
      </trkpt>
      <trkpt lat="48.91688" lon="2.09722">
        <ele>66.9</ele>
        <time>2021-09-28T17:56:31Z</time>
      </trkpt>
      <trkpt lat="48.91683" lon="2.09711">
        <ele>67.3</ele>
        <time>2021-09-28T17:56:37Z</time>
      </trkpt>
      <trkpt lat="48.91678" lon="2.097">
        <ele>67.7</ele>
        <time>2021-09-28T17:56:43Z</time>
      </trkpt>
      <trkpt lat="48.91673" lon="2.0969">
        <ele>68.1</ele>
        <time>2021-09-28T17:56:49Z</time>
      </trkpt>
      <trkpt lat="48.91668" lon="2.09681">
        <ele>68.5</ele>
        <time>2021-09-28T17:56:54Z</time>
      </trkpt>
      <trkpt lat="48.91663" lon="2.0967">
        <ele>69</ele>
        <time>2021-09-28T17:57:00Z</time>
      </trkpt>
      <trkpt lat="48.91658" lon="2.09662">
        <ele>69.6</ele>
        <time>2021-09-28T17:57:05Z</time>
      </trkpt>
      <trkpt lat="48.91654" lon="2.09653">
        <ele>70.3</ele>
        <time>2021-09-28T17:57:10Z</time>
      </trkpt>
      <trkpt lat="48.91648" lon="2.09648">
        <ele>70.8</ele>
        <time>2021-09-28T17:57:16Z</time>
      </trkpt>
      <trkpt lat="48.91646" lon="2.09648">
        <ele>70.9</ele>
        <time>2021-09-28T17:57:22Z</time>
      </trkpt>
      <trkpt lat="48.91645" lon="2.09658">
        <ele>70.4</ele>
        <time>2021-09-28T17:57:27Z</time>
      </trkpt>
      <trkpt lat="48.9164" lon="2.0967">
        <ele>70.1</ele>
        <time>2021-09-28T17:57:33Z</time>
      </trkpt>
      <trkpt lat="48.91636" lon="2.0968">
        <ele>69.8</ele>
        <time>2021-09-28T17:57:38Z</time>
      </trkpt>
      <trkpt lat="48.91634" lon="2.09691">
        <ele>69.5</ele>
        <time>2021-09-28T17:57:43Z</time>
      </trkpt>
      <trkpt lat="48.91632" lon="2.09703">
        <ele>69</ele>
        <time>2021-09-28T17:57:48Z</time>
      </trkpt>
      <trkpt lat="48.9163" lon="2.09717">
        <ele>68.4</ele>
        <time>2021-09-28T17:57:54Z</time>
      </trkpt>
      <trkpt lat="48.91627" lon="2.09729">
        <ele>68</ele>
        <time>2021-09-28T17:57:59Z</time>
      </trkpt>
      <trkpt lat="48.91623" lon="2.09738">
        <ele>67.6</ele>
        <time>2021-09-28T17:58:04Z</time>
      </trkpt>
      <trkpt lat="48.91622" lon="2.0975">
        <ele>67.1</ele>
        <time>2021-09-28T17:58:10Z</time>
      </trkpt>
      <trkpt lat="48.91618" lon="2.09759">
        <ele>67.2</ele>
        <time>2021-09-28T17:58:15Z</time>
      </trkpt>
      <trkpt lat="48.91615" lon="2.09769">
        <ele>67.3</ele>
        <time>2021-09-28T17:58:21Z</time>
      </trkpt>
      <trkpt lat="48.91611" lon="2.09779">
        <ele>67.5</ele>
        <time>2021-09-28T17:58:27Z</time>
      </trkpt>
      <trkpt lat="48.91608" lon="2.09791">
        <ele>67.6</ele>
        <time>2021-09-28T17:58:33Z</time>
      </trkpt>
      <trkpt lat="48.91604" lon="2.09805">
        <ele>67.8</ele>
        <time>2021-09-28T17:58:39Z</time>
      </trkpt>
      <trkpt lat="48.91598" lon="2.0982">
        <ele>68.2</ele>
        <time>2021-09-28T17:58:45Z</time>
      </trkpt>
      <trkpt lat="48.91595" lon="2.09831">
        <ele>68.4</ele>
        <time>2021-09-28T17:58:51Z</time>
      </trkpt>
      <trkpt lat="48.91593" lon="2.0984">
        <ele>68.7</ele>
        <time>2021-09-28T17:58:56Z</time>
      </trkpt>
      <trkpt lat="48.91591" lon="2.09851">
        <ele>69.2</ele>
        <time>2021-09-28T17:59:01Z</time>
      </trkpt>
      <trkpt lat="48.91586" lon="2.09861">
        <ele>69.8</ele>
        <time>2021-09-28T17:59:06Z</time>
      </trkpt>
      <trkpt lat="48.91585" lon="2.09873">
        <ele>70.3</ele>
        <time>2021-09-28T17:59:12Z</time>
      </trkpt>
      <trkpt lat="48.91583" lon="2.09883">
        <ele>70.8</ele>
        <time>2021-09-28T17:59:18Z</time>
      </trkpt>
      <trkpt lat="48.91581" lon="2.09893">
        <ele>71.3</ele>
        <time>2021-09-28T17:59:24Z</time>
      </trkpt>
      <trkpt lat="48.9158" lon="2.09903">
        <ele>71.7</ele>
        <time>2021-09-28T17:59:29Z</time>
      </trkpt>
      <trkpt lat="48.91575" lon="2.09913">
        <ele>72.4</ele>
        <time>2021-09-28T17:59:35Z</time>
      </trkpt>
      <trkpt lat="48.91573" lon="2.09925">
        <ele>72.5</ele>
        <time>2021-09-28T17:59:40Z</time>
      </trkpt>
      <trkpt lat="48.9157" lon="2.09935">
        <ele>72.7</ele>
        <time>2021-09-28T17:59:45Z</time>
      </trkpt>
      <trkpt lat="48.91567" lon="2.09947">
        <ele>72.8</ele>
        <time>2021-09-28T17:59:51Z</time>
      </trkpt>
      <trkpt lat="48.91565" lon="2.09957">
        <ele>73</ele>
        <time>2021-09-28T17:59:56Z</time>
      </trkpt>
      <trkpt lat="48.91559" lon="2.09968">
        <ele>73.3</ele>
        <time>2021-09-28T18:00:02Z</time>
      </trkpt>
      <trkpt lat="48.91555" lon="2.09976">
        <ele>73.7</ele>
        <time>2021-09-28T18:00:07Z</time>
      </trkpt>
      <trkpt lat="48.91551" lon="2.09988">
        <ele>74.1</ele>
        <time>2021-09-28T18:00:13Z</time>
      </trkpt>
      <trkpt lat="48.91548" lon="2.1">
        <ele>74.4</ele>
        <time>2021-09-28T18:00:19Z</time>
      </trkpt>
      <trkpt lat="48.91548" lon="2.10009">
        <ele>74.6</ele>
        <time>2021-09-28T18:00:24Z</time>
      </trkpt>
      <trkpt lat="48.91542" lon="2.10012">
        <ele>75.2</ele>
        <time>2021-09-28T18:00:30Z</time>
      </trkpt>
      <trkpt lat="48.91534" lon="2.10012">
        <ele>76</ele>
        <time>2021-09-28T18:00:36Z</time>
      </trkpt>
      <trkpt lat="48.91526" lon="2.10018">
        <ele>76.8</ele>
        <time>2021-09-28T18:00:41Z</time>
      </trkpt>
      <trkpt lat="48.9152" lon="2.10027">
        <ele>77.7</ele>
        <time>2021-09-28T18:00:46Z</time>
      </trkpt>
      <trkpt lat="48.91515" lon="2.10036">
        <ele>78.3</ele>
        <time>2021-09-28T18:00:51Z</time>
      </trkpt>
      <trkpt lat="48.91508" lon="2.10035">
        <ele>79.1</ele>
        <time>2021-09-28T18:00:57Z</time>
      </trkpt>
      <trkpt lat="48.91498" lon="2.10031">
        <ele>79.7</ele>
        <time>2021-09-28T18:01:03Z</time>
      </trkpt>
      <trkpt lat="48.91489" lon="2.10026">
        <ele>79.2</ele>
        <time>2021-09-28T18:01:09Z</time>
      </trkpt>
      <trkpt lat="48.91483" lon="2.10022">
        <ele>78.9</ele>
        <time>2021-09-28T18:01:15Z</time>
      </trkpt>
      <trkpt lat="48.91474" lon="2.1002">
        <ele>78.5</ele>
        <time>2021-09-28T18:01:21Z</time>
      </trkpt>
      <trkpt lat="48.91464" lon="2.10019">
        <ele>78.2</ele>
        <time>2021-09-28T18:01:27Z</time>
      </trkpt>
      <trkpt lat="48.91457" lon="2.10028">
        <ele>78.1</ele>
        <time>2021-09-28T18:01:33Z</time>
      </trkpt>
      <trkpt lat="48.91455" lon="2.10038">
        <ele>78.3</ele>
        <time>2021-09-28T18:01:39Z</time>
      </trkpt>
      <trkpt lat="48.91454" lon="2.10043">
        <ele>78.4</ele>
        <time>2021-09-28T18:01:44Z</time>
      </trkpt>
      <trkpt lat="48.91454" lon="2.10042">
        <ele>78.4</ele>
        <time>2021-09-28T18:01:50Z</time>
      </trkpt>
      <trkpt lat="48.91454" lon="2.10043">
        <ele>78.4</ele>
        <time>2021-09-28T18:01:55Z</time>
      </trkpt>
      <trkpt lat="48.91452" lon="2.10043">
        <ele>78.3</ele>
        <time>2021-09-28T18:02:00Z</time>
      </trkpt>
      <trkpt lat="48.91445" lon="2.10044">
        <ele>78.1</ele>
        <time>2021-09-28T18:02:06Z</time>
      </trkpt>
      <trkpt lat="48.91436" lon="2.10043">
        <ele>77.7</ele>
        <time>2021-09-28T18:02:11Z</time>
      </trkpt>
      <trkpt lat="48.91431" lon="2.10043">
        <ele>77.5</ele>
        <time>2021-09-28T18:02:16Z</time>
      </trkpt>
      <trkpt lat="48.91425" lon="2.10043">
        <ele>77.3</ele>
        <time>2021-09-28T18:02:21Z</time>
      </trkpt>
      <trkpt lat="48.91415" lon="2.10043">
        <ele>77</ele>
        <time>2021-09-28T18:02:27Z</time>
      </trkpt>
      <trkpt lat="48.91407" lon="2.1004">
        <ele>76.6</ele>
        <time>2021-09-28T18:02:33Z</time>
      </trkpt>
      <trkpt lat="48.914" lon="2.1004">
        <ele>76.3</ele>
        <time>2021-09-28T18:02:38Z</time>
      </trkpt>
      <trkpt lat="48.91391" lon="2.10042">
        <ele>76.1</ele>
        <time>2021-09-28T18:02:44Z</time>
      </trkpt>
      <trkpt lat="48.91385" lon="2.10043">
        <ele>75.9</ele>
        <time>2021-09-28T18:02:49Z</time>
      </trkpt>
      <trkpt lat="48.91378" lon="2.10043">
        <ele>75.6</ele>
        <time>2021-09-28T18:02:55Z</time>
      </trkpt>
      <trkpt lat="48.91371" lon="2.10044">
        <ele>75.4</ele>
        <time>2021-09-28T18:03:01Z</time>
      </trkpt>
      <trkpt lat="48.91365" lon="2.10042">
        <ele>75.1</ele>
        <time>2021-09-28T18:03:06Z</time>
      </trkpt>
      <trkpt lat="48.91357" lon="2.10042">
        <ele>74.9</ele>
        <time>2021-09-28T18:03:12Z</time>
      </trkpt>
      <trkpt lat="48.91348" lon="2.10041">
        <ele>74.5</ele>
        <time>2021-09-28T18:03:18Z</time>
      </trkpt>
      <trkpt lat="48.91339" lon="2.10041">
        <ele>74.2</ele>
        <time>2021-09-28T18:03:23Z</time>
      </trkpt>
      <trkpt lat="48.91331" lon="2.10041">
        <ele>74</ele>
        <time>2021-09-28T18:03:28Z</time>
      </trkpt>
      <trkpt lat="48.91321" lon="2.10038">
        <ele>73.9</ele>
        <time>2021-09-28T18:03:33Z</time>
      </trkpt>
      <trkpt lat="48.9131" lon="2.10041">
        <ele>73.9</ele>
        <time>2021-09-28T18:03:39Z</time>
      </trkpt>
      <trkpt lat="48.91301" lon="2.10043">
        <ele>73.8</ele>
        <time>2021-09-28T18:03:45Z</time>
      </trkpt>
      <trkpt lat="48.91294" lon="2.1004">
        <ele>73.7</ele>
        <time>2021-09-28T18:03:51Z</time>
      </trkpt>
      <trkpt lat="48.91288" lon="2.10042">
        <ele>73.7</ele>
        <time>2021-09-28T18:03:56Z</time>
      </trkpt>
      <trkpt lat="48.91282" lon="2.10044">
        <ele>73.7</ele>
        <time>2021-09-28T18:04:01Z</time>
      </trkpt>
      <trkpt lat="48.91273" lon="2.10044">
        <ele>73.7</ele>
        <time>2021-09-28T18:04:07Z</time>
      </trkpt>
      <trkpt lat="48.91266" lon="2.10045">
        <ele>73.7</ele>
        <time>2021-09-28T18:04:13Z</time>
      </trkpt>
      <trkpt lat="48.91259" lon="2.10047">
        <ele>73.6</ele>
        <time>2021-09-28T18:04:18Z</time>
      </trkpt>
      <trkpt lat="48.91249" lon="2.10048">
        <ele>73.6</ele>
        <time>2021-09-28T18:04:24Z</time>
      </trkpt>
      <trkpt lat="48.91241" lon="2.10048">
        <ele>73.9</ele>
        <time>2021-09-28T18:04:29Z</time>
      </trkpt>
      <trkpt lat="48.91235" lon="2.10047">
        <ele>74.2</ele>
        <time>2021-09-28T18:04:34Z</time>
      </trkpt>
      <trkpt lat="48.91227" lon="2.10047">
        <ele>74.6</ele>
        <time>2021-09-28T18:04:39Z</time>
      </trkpt>
      <trkpt lat="48.9122" lon="2.10048">
        <ele>74.9</ele>
        <time>2021-09-28T18:04:45Z</time>
      </trkpt>
      <trkpt lat="48.91214" lon="2.10046">
        <ele>75.1</ele>
        <time>2021-09-28T18:04:50Z</time>
      </trkpt>
      <trkpt lat="48.91204" lon="2.10047">
        <ele>75.5</ele>
        <time>2021-09-28T18:04:56Z</time>
      </trkpt>
      <trkpt lat="48.91196" lon="2.10046">
        <ele>75.8</ele>
        <time>2021-09-28T18:05:01Z</time>
      </trkpt>
      <trkpt lat="48.91189" lon="2.10044">
        <ele>76.1</ele>
        <time>2021-09-28T18:05:06Z</time>
      </trkpt>
      <trkpt lat="48.91178" lon="2.10044">
        <ele>76.6</ele>
        <time>2021-09-28T18:05:12Z</time>
      </trkpt>
      <trkpt lat="48.91168" lon="2.10044">
        <ele>77</ele>
        <time>2021-09-28T18:05:17Z</time>
      </trkpt>
      <trkpt lat="48.91161" lon="2.10044">
        <ele>77.4</ele>
        <time>2021-09-28T18:05:22Z</time>
      </trkpt>
      <trkpt lat="48.91153" lon="2.10041">
        <ele>77.8</ele>
        <time>2021-09-28T18:05:28Z</time>
      </trkpt>
      <trkpt lat="48.91144" lon="2.10043">
        <ele>78.4</ele>
        <time>2021-09-28T18:05:33Z</time>
      </trkpt>
      <trkpt lat="48.91137" lon="2.10044">
        <ele>78.9</ele>
        <time>2021-09-28T18:05:39Z</time>
      </trkpt>
      <trkpt lat="48.9113" lon="2.10043">
        <ele>79.2</ele>
        <time>2021-09-28T18:05:44Z</time>
      </trkpt>
      <trkpt lat="48.91123" lon="2.10045">
        <ele>79.7</ele>
        <time>2021-09-28T18:05:50Z</time>
      </trkpt>
      <trkpt lat="48.91116" lon="2.10048">
        <ele>80.2</ele>
        <time>2021-09-28T18:05:55Z</time>
      </trkpt>
      <trkpt lat="48.91105" lon="2.10049">
        <ele>80.8</ele>
        <time>2021-09-28T18:06:01Z</time>
      </trkpt>
      <trkpt lat="48.911" lon="2.10048">
        <ele>81.1</ele>
        <time>2021-09-28T18:06:06Z</time>
      </trkpt>
      <trkpt lat="48.91095" lon="2.10049">
        <ele>81.5</ele>
        <time>2021-09-28T18:06:11Z</time>
      </trkpt>
      <trkpt lat="48.91087" lon="2.10048">
        <ele>81.9</ele>
        <time>2021-09-28T18:06:17Z</time>
      </trkpt>
      <trkpt lat="48.91078" lon="2.10047">
        <ele>82.2</ele>
        <time>2021-09-28T18:06:23Z</time>
      </trkpt>
      <trkpt lat="48.9107" lon="2.10046">
        <ele>82.4</ele>
        <time>2021-09-28T18:06:29Z</time>
      </trkpt>
      <trkpt lat="48.91059" lon="2.10048">
        <ele>82.7</ele>
        <time>2021-09-28T18:06:35Z</time>
      </trkpt>
      <trkpt lat="48.91052" lon="2.10049">
        <ele>82.8</ele>
        <time>2021-09-28T18:06:40Z</time>
      </trkpt>
      <trkpt lat="48.91047" lon="2.10051">
        <ele>83</ele>
        <time>2021-09-28T18:06:45Z</time>
      </trkpt>
      <trkpt lat="48.91037" lon="2.10054">
        <ele>83.4</ele>
        <time>2021-09-28T18:06:51Z</time>
      </trkpt>
      <trkpt lat="48.91031" lon="2.10055">
        <ele>83.5</ele>
        <time>2021-09-28T18:06:56Z</time>
      </trkpt>
      <trkpt lat="48.91023" lon="2.10055">
        <ele>83.8</ele>
        <time>2021-09-28T18:07:02Z</time>
      </trkpt>
      <trkpt lat="48.91014" lon="2.10056">
        <ele>84</ele>
        <time>2021-09-28T18:07:08Z</time>
      </trkpt>
      <trkpt lat="48.91006" lon="2.10055">
        <ele>84.2</ele>
        <time>2021-09-28T18:07:13Z</time>
      </trkpt>
      <trkpt lat="48.90999" lon="2.10055">
        <ele>84.2</ele>
        <time>2021-09-28T18:07:19Z</time>
      </trkpt>
      <trkpt lat="48.90994" lon="2.10054">
        <ele>83.9</ele>
        <time>2021-09-28T18:07:24Z</time>
      </trkpt>
      <trkpt lat="48.90986" lon="2.10054">
        <ele>83.6</ele>
        <time>2021-09-28T18:07:29Z</time>
      </trkpt>
      <trkpt lat="48.90978" lon="2.10054">
        <ele>83.2</ele>
        <time>2021-09-28T18:07:34Z</time>
      </trkpt>
      <trkpt lat="48.90969" lon="2.10056">
        <ele>82.8</ele>
        <time>2021-09-28T18:07:40Z</time>
      </trkpt>
      <trkpt lat="48.90962" lon="2.10061">
        <ele>82.8</ele>
        <time>2021-09-28T18:07:45Z</time>
      </trkpt>
      <trkpt lat="48.90955" lon="2.10062">
        <ele>82.5</ele>
        <time>2021-09-28T18:07:50Z</time>
      </trkpt>
      <trkpt lat="48.90948" lon="2.10061">
        <ele>82.2</ele>
        <time>2021-09-28T18:07:56Z</time>
      </trkpt>
      <trkpt lat="48.90939" lon="2.10051">
        <ele>81.2</ele>
        <time>2021-09-28T18:08:02Z</time>
      </trkpt>
      <trkpt lat="48.90928" lon="2.10046">
        <ele>80.3</ele>
        <time>2021-09-28T18:08:08Z</time>
      </trkpt>
      <trkpt lat="48.90922" lon="2.10037">
        <ele>79.5</ele>
        <time>2021-09-28T18:08:13Z</time>
      </trkpt>
      <trkpt lat="48.90915" lon="2.1003">
        <ele>78.9</ele>
        <time>2021-09-28T18:08:18Z</time>
      </trkpt>
      <trkpt lat="48.90908" lon="2.10023">
        <ele>78.7</ele>
        <time>2021-09-28T18:08:23Z</time>
      </trkpt>
      <trkpt lat="48.90901" lon="2.10016">
        <ele>78.7</ele>
        <time>2021-09-28T18:08:28Z</time>
      </trkpt>
      <trkpt lat="48.90893" lon="2.1001">
        <ele>78.8</ele>
        <time>2021-09-28T18:08:33Z</time>
      </trkpt>
      <trkpt lat="48.90885" lon="2.10004">
        <ele>79</ele>
        <time>2021-09-28T18:08:38Z</time>
      </trkpt>
      <trkpt lat="48.90876" lon="2.09992">
        <ele>79.3</ele>
        <time>2021-09-28T18:08:44Z</time>
      </trkpt>
      <trkpt lat="48.90869" lon="2.09984">
        <ele>79.5</ele>
        <time>2021-09-28T18:08:50Z</time>
      </trkpt>
      <trkpt lat="48.90866" lon="2.09983">
        <ele>79.7</ele>
        <time>2021-09-28T18:08:55Z</time>
      </trkpt>
      <trkpt lat="48.90858" lon="2.09978">
        <ele>79.9</ele>
        <time>2021-09-28T18:09:00Z</time>
      </trkpt>
      <trkpt lat="48.90851" lon="2.09974">
        <ele>80.2</ele>
        <time>2021-09-28T18:09:05Z</time>
      </trkpt>
      <trkpt lat="48.90844" lon="2.09969">
        <ele>80.4</ele>
        <time>2021-09-28T18:09:11Z</time>
      </trkpt>
      <trkpt lat="48.90838" lon="2.09964">
        <ele>80.5</ele>
        <time>2021-09-28T18:09:16Z</time>
      </trkpt>
      <trkpt lat="48.90828" lon="2.09958">
        <ele>80.5</ele>
        <time>2021-09-28T18:09:22Z</time>
      </trkpt>
      <trkpt lat="48.90821" lon="2.09953">
        <ele>80.3</ele>
        <time>2021-09-28T18:09:28Z</time>
      </trkpt>
      <trkpt lat="48.90815" lon="2.09944">
        <ele>80</ele>
        <time>2021-09-28T18:09:34Z</time>
      </trkpt>
      <trkpt lat="48.90809" lon="2.0994">
        <ele>80</ele>
        <time>2021-09-28T18:09:39Z</time>
      </trkpt>
      <trkpt lat="48.90801" lon="2.09932">
        <ele>79.8</ele>
        <time>2021-09-28T18:09:45Z</time>
      </trkpt>
      <trkpt lat="48.90794" lon="2.09927">
        <ele>79.7</ele>
        <time>2021-09-28T18:09:51Z</time>
      </trkpt>
      <trkpt lat="48.90784" lon="2.09921">
        <ele>79.7</ele>
        <time>2021-09-28T18:09:57Z</time>
      </trkpt>
      <trkpt lat="48.90777" lon="2.09915">
        <ele>79.7</ele>
        <time>2021-09-28T18:10:03Z</time>
      </trkpt>
      <trkpt lat="48.90772" lon="2.0991">
        <ele>79.8</ele>
        <time>2021-09-28T18:10:08Z</time>
      </trkpt>
      <trkpt lat="48.90768" lon="2.09905">
        <ele>79.9</ele>
        <time>2021-09-28T18:10:13Z</time>
      </trkpt>
      <trkpt lat="48.90762" lon="2.09901">
        <ele>80</ele>
        <time>2021-09-28T18:10:18Z</time>
      </trkpt>
      <trkpt lat="48.90755" lon="2.09895">
        <ele>80.2</ele>
        <time>2021-09-28T18:10:23Z</time>
      </trkpt>
      <trkpt lat="48.90746" lon="2.09887">
        <ele>80.4</ele>
        <time>2021-09-28T18:10:29Z</time>
      </trkpt>
      <trkpt lat="48.90738" lon="2.09881">
        <ele>80.7</ele>
        <time>2021-09-28T18:10:34Z</time>
      </trkpt>
      <trkpt lat="48.90731" lon="2.09877">
        <ele>80.8</ele>
        <time>2021-09-28T18:10:39Z</time>
      </trkpt>
      <trkpt lat="48.90722" lon="2.09874">
        <ele>81</ele>
        <time>2021-09-28T18:10:45Z</time>
      </trkpt>
      <trkpt lat="48.90716" lon="2.09865">
        <ele>81.2</ele>
        <time>2021-09-28T18:10:50Z</time>
      </trkpt>
      <trkpt lat="48.90707" lon="2.09857">
        <ele>81.4</ele>
        <time>2021-09-28T18:10:56Z</time>
      </trkpt>
      <trkpt lat="48.90698" lon="2.09848">
        <ele>81.6</ele>
        <time>2021-09-28T18:11:02Z</time>
      </trkpt>
      <trkpt lat="48.90691" lon="2.09842">
        <ele>81.7</ele>
        <time>2021-09-28T18:11:07Z</time>
      </trkpt>
      <trkpt lat="48.90686" lon="2.09836">
        <ele>81.8</ele>
        <time>2021-09-28T18:11:12Z</time>
      </trkpt>
      <trkpt lat="48.9068" lon="2.09833">
        <ele>81.9</ele>
        <time>2021-09-28T18:11:17Z</time>
      </trkpt>
      <trkpt lat="48.90674" lon="2.09826">
        <ele>82.2</ele>
        <time>2021-09-28T18:11:23Z</time>
      </trkpt>
      <trkpt lat="48.90665" lon="2.09821">
        <ele>82.4</ele>
        <time>2021-09-28T18:11:29Z</time>
      </trkpt>
      <trkpt lat="48.90656" lon="2.09815">
        <ele>82.4</ele>
        <time>2021-09-28T18:11:35Z</time>
      </trkpt>
      <trkpt lat="48.90648" lon="2.09808">
        <ele>82.4</ele>
        <time>2021-09-28T18:11:41Z</time>
      </trkpt>
      <trkpt lat="48.90643" lon="2.09804">
        <ele>82.5</ele>
        <time>2021-09-28T18:11:46Z</time>
      </trkpt>
      <trkpt lat="48.90638" lon="2.098">
        <ele>82.5</ele>
        <time>2021-09-28T18:11:51Z</time>
      </trkpt>
      <trkpt lat="48.9063" lon="2.09793">
        <ele>82.6</ele>
        <time>2021-09-28T18:11:57Z</time>
      </trkpt>
      <trkpt lat="48.90623" lon="2.09788">
        <ele>82.6</ele>
        <time>2021-09-28T18:12:02Z</time>
      </trkpt>
      <trkpt lat="48.90615" lon="2.09781">
        <ele>82.7</ele>
        <time>2021-09-28T18:12:08Z</time>
      </trkpt>
      <trkpt lat="48.90607" lon="2.09775">
        <ele>82.7</ele>
        <time>2021-09-28T18:12:14Z</time>
      </trkpt>
      <trkpt lat="48.906" lon="2.09769">
        <ele>82.7</ele>
        <time>2021-09-28T18:12:19Z</time>
      </trkpt>
      <trkpt lat="48.90592" lon="2.09767">
        <ele>82.6</ele>
        <time>2021-09-28T18:12:25Z</time>
      </trkpt>
      <trkpt lat="48.90584" lon="2.09764">
        <ele>82.5</ele>
        <time>2021-09-28T18:12:30Z</time>
      </trkpt>
      <trkpt lat="48.90575" lon="2.09758">
        <ele>82.6</ele>
        <time>2021-09-28T18:12:36Z</time>
      </trkpt>
      <trkpt lat="48.90568" lon="2.09752">
        <ele>82.8</ele>
        <time>2021-09-28T18:12:42Z</time>
      </trkpt>
      <trkpt lat="48.90563" lon="2.09747">
        <ele>82.8</ele>
        <time>2021-09-28T18:12:47Z</time>
      </trkpt>
      <trkpt lat="48.90557" lon="2.09741">
        <ele>82.9</ele>
        <time>2021-09-28T18:12:52Z</time>
      </trkpt>
      <trkpt lat="48.90552" lon="2.09734">
        <ele>83</ele>
        <time>2021-09-28T18:12:57Z</time>
      </trkpt>
      <trkpt lat="48.90541" lon="2.09725">
        <ele>82.9</ele>
        <time>2021-09-28T18:13:03Z</time>
      </trkpt>
      <trkpt lat="48.90535" lon="2.09721">
        <ele>82.9</ele>
        <time>2021-09-28T18:13:08Z</time>
      </trkpt>
      <trkpt lat="48.90529" lon="2.09719">
        <ele>82.7</ele>
        <time>2021-09-28T18:13:14Z</time>
      </trkpt>
      <trkpt lat="48.90526" lon="2.09715">
        <ele>82.7</ele>
        <time>2021-09-28T18:13:19Z</time>
      </trkpt>
      <trkpt lat="48.9052" lon="2.09708">
        <ele>82.6</ele>
        <time>2021-09-28T18:13:24Z</time>
      </trkpt>
      <trkpt lat="48.90518" lon="2.09695">
        <ele>82.6</ele>
        <time>2021-09-28T18:13:30Z</time>
      </trkpt>
      <trkpt lat="48.90517" lon="2.09681">
        <ele>82.7</ele>
        <time>2021-09-28T18:13:36Z</time>
      </trkpt>
      <trkpt lat="48.90514" lon="2.09672">
        <ele>82.7</ele>
        <time>2021-09-28T18:13:41Z</time>
      </trkpt>
      <trkpt lat="48.90509" lon="2.09663">
        <ele>82.4</ele>
        <time>2021-09-28T18:13:47Z</time>
      </trkpt>
      <trkpt lat="48.90501" lon="2.09658">
        <ele>82</ele>
        <time>2021-09-28T18:13:53Z</time>
      </trkpt>
      <trkpt lat="48.90498" lon="2.09652">
        <ele>82</ele>
        <time>2021-09-28T18:13:58Z</time>
      </trkpt>
      <trkpt lat="48.90495" lon="2.09642">
        <ele>81.9</ele>
        <time>2021-09-28T18:14:04Z</time>
      </trkpt>
      <trkpt lat="48.90491" lon="2.09628">
        <ele>81.8</ele>
        <time>2021-09-28T18:14:10Z</time>
      </trkpt>
      <trkpt lat="48.90491" lon="2.09617">
        <ele>81.7</ele>
        <time>2021-09-28T18:14:15Z</time>
      </trkpt>
      <trkpt lat="48.90492" lon="2.09604">
        <ele>81.7</ele>
        <time>2021-09-28T18:14:20Z</time>
      </trkpt>
    </trkseg>
  </trk>
</gpx>